Provisional Data: Mill Creek near Lancaster, PA


Please select a monitoring station.
Please select start date.
Please select start date.

Toggle Unit: C/F Toggle Unit: C/F
Sample Time Temperature (C) Temperature (F) Specific Conductivity (mS/cm) pH   Turbidity (NTU+) DO (mg/L)
8/1/2022 12:00:00 AM 23.12 73.616 0.596 7.9 259.7 6.66
8/1/2022 12:15:00 AM 23.09 73.562 0.594 7.89 354 6.64
8/1/2022 12:30:00 AM 23.06 73.508 0.591 7.88 155.7 6.6
8/1/2022 12:45:00 AM 23.03 73.454 0.593 7.89 215.8 6.59
8/1/2022 1:00:00 AM 22.99 73.382 0.594 7.9 207.4 6.55
8/1/2022 1:15:00 AM 22.95 73.31 0.594 7.9 296.9 6.56
8/1/2022 1:30:00 AM 22.91 73.238 0.593 7.9 268.1 6.61
8/1/2022 1:45:00 AM 22.87 73.166 0.592 7.88 257.5 6.6
8/1/2022 2:00:00 AM 22.83 73.094 0.591 7.88 266.7 6.67
8/1/2022 2:15:00 AM 22.79 73.022 0.592 7.87 291.4 6.69
8/1/2022 2:30:00 AM 22.75 72.95 0.582 7.84 329.8 6.62
8/1/2022 2:45:00 AM 22.7 72.86 0.595 7.84 441.2 6.69
8/1/2022 3:00:00 AM 22.65 72.77 0.597 7.82 322.9 6.65
8/1/2022 3:15:00 AM 22.6 72.68 0.596 7.82 390.8 6.74
8/1/2022 3:30:00 AM 22.54 72.57201 0.595 7.83 370.1 6.77
8/1/2022 3:45:00 AM 22.45 72.41 0.594 7.81 414.3 6.83
8/1/2022 4:00:00 AM 22.35 72.23 0.591 7.81 338.6 6.92
8/1/2022 4:15:00 AM 22.26 72.068 0.59 7.8 664.7 6.93
8/1/2022 4:30:00 AM 22.2 71.96 0.588 7.78 508 6.97
8/1/2022 4:45:00 AM 22.17 71.906 0.585 7.8 724.1 6.98
8/1/2022 5:00:00 AM 22.16 71.888 0.583 7.78 418.3 6.9
8/1/2022 5:15:00 AM 22.16 71.888 0.58 7.79 365.7 6.95
8/1/2022 5:30:00 AM 22.17 71.906 0.578 7.77 213.8 6.93
8/1/2022 5:45:00 AM 22.18 71.924 0.575 7.8 366.2 6.92
8/1/2022 6:00:00 AM 22.18 71.924 0.573 7.79 538.1 6.88
8/1/2022 6:15:00 AM 22.17 71.906 0.57 7.79 546.3 6.81
8/1/2022 6:30:00 AM 22.16 71.888 0.567 7.77 298.6 6.74
8/1/2022 6:45:00 AM 22.13 71.834 0.561 7.78 330.9 6.79
8/1/2022 7:00:00 AM 22.12 71.816 0.56 7.76 433.2 6.71
8/1/2022 7:15:00 AM 22.11 71.798 0.558 7.76 696.9 6.72
8/1/2022 7:30:00 AM 22.11 71.798 0.557 7.76 496 6.77
8/1/2022 7:45:00 AM 22.12 71.816 0.557 7.77 775.8 6.75
8/1/2022 8:00:00 AM 22.12 71.816 0.558 7.76 704.5 6.71
8/1/2022 8:15:00 AM 22.13 71.834 0.558 7.77 804.6 6.69
8/1/2022 8:30:00 AM 22.13 71.834 0.558 7.77 830.7 6.77
8/1/2022 8:45:00 AM 22.14 71.852 0.558 7.78 468.3 6.74
8/1/2022 9:00:00 AM 22.14 71.852 0.559 7.78 216.4 6.75
8/1/2022 9:15:00 AM 22.14 71.852 0.56 7.77 495.8 6.73
8/1/2022 9:30:00 AM 22.15 71.87 0.563 7.79 290.1 6.8
8/1/2022 9:45:00 AM 22.18 71.924 0.566 7.8 429.6 6.84
8/1/2022 10:00:00 AM 22.2 71.96 0.57 7.81 253.1 6.93
8/1/2022 10:15:00 AM 22.24 72.032 0.575 7.81 83.45 6.95
8/1/2022 10:30:00 AM 22.28 72.104 0.58 7.81 230.2 7.03
8/1/2022 10:45:00 AM 22.31 72.158 0.586 7.82 713.1 7.09
8/1/2022 11:00:00 AM 22.35 72.23 0.592 7.83 783.9 7.18
8/1/2022 11:15:00 AM 22.38 72.284 0.598 7.84 457.5 7.19
8/1/2022 11:30:00 AM 22.42 72.356 0.603 7.84 638 7.29
8/1/2022 11:45:00 AM 22.47 72.446 0.607 7.86 484.4 7.37
8/1/2022 12:00:00 PM 22.53 72.554 0.61 7.85 736.6 7.39
8/1/2022 12:15:00 PM 22.58 72.644 0.612 7.87 725.2 7.52
8/1/2022 12:30:00 PM 22.63 72.734 0.612 7.89 585.7 7.5
8/1/2022 12:45:00 PM 22.68 72.824 0.611 7.88 460.5 7.52
8/1/2022 1:00:00 PM 22.74 72.932 0.61 7.9 252.3 7.65
8/1/2022 1:15:00 PM 22.77 72.986 0.608 7.91 469 7.68
8/1/2022 1:30:00 PM 22.77 72.986 0.607 7.91 429 7.7
8/1/2022 1:45:00 PM 22.76 72.968 0.606 7.92 532.2 7.61
8/1/2022 2:00:00 PM 22.74 72.932 0.607 7.91 663.5 7.56
8/1/2022 2:15:00 PM 22.78 73.004 0.61 7.9 393.7 7.58
8/1/2022 2:30:00 PM 22.81 73.058 0.614 7.91 735.1 7.62
8/1/2022 2:45:00 PM 22.84 73.112 0.618 7.92 576.2 7.67
8/1/2022 3:00:00 PM 22.89 73.202 0.623 7.93 750.9 7.75
8/1/2022 3:15:00 PM 22.93 73.274 0.627 7.93 610.2 7.74
8/1/2022 3:30:00 PM 22.96 73.328 0.632 7.95 721.5 7.77
8/1/2022 3:45:00 PM 23.02 73.436 0.636 7.93 258.2 7.72
8/1/2022 4:00:00 PM 23.1 73.58 0.641 7.94 767.2 7.82
8/1/2022 4:15:00 PM 23.16 73.688 0.645 7.94 476.1 7.88
8/1/2022 4:30:00 PM 23.17 73.706 0.65 7.96 591.8 7.73
8/1/2022 4:45:00 PM 23.19 73.742 0.654 7.97 95.84 7.72
8/1/2022 5:00:00 PM 23.21 73.778 0.659 7.95 711.5 7.65
8/1/2022 5:15:00 PM 23.23 73.814 0.663 7.97 918.1 7.58
8/1/2022 5:30:00 PM 23.22 73.796 0.668 7.97 603.6 7.51
8/1/2022 5:45:00 PM 23.23 73.814 0.674 7.97 593.7 7.5
8/1/2022 6:00:00 PM 23.25 73.85 0.68 7.97 778.4 7.48
8/1/2022 6:15:00 PM 23.25 73.85 0.684 7.97 662.4 7.42
8/1/2022 6:30:00 PM 23.25 73.85 0.69 7.97 465.2 7.36
8/1/2022 6:45:00 PM 23.27 73.886 0.694 7.97 687.8 7.34
8/1/2022 7:00:00 PM 23.27 73.886 0.7 7.97 709.9 7.29
8/1/2022 7:15:00 PM 23.27 73.886 0.705 7.97 1168 7.22
8/1/2022 7:30:00 PM 23.26 73.868 0.707 7.97 526.4 7.17
8/1/2022 7:45:00 PM 23.27 73.886 0.713 7.98 707.9 7.25
8/1/2022 8:00:00 PM 23.26 73.868 0.716 7.98 812.2 7.17
8/1/2022 8:15:00 PM 23.23 73.814 0.719 7.97 695.3 7.06
8/1/2022 8:30:00 PM 23.21 73.778 0.722 7.98 216.9 7.04
8/1/2022 8:45:00 PM 23.18 73.724 0.724 7.98 398.8 7.03
8/1/2022 9:00:00 PM 23.14 73.652 0.726 7.98 917.9 7
8/1/2022 9:15:00 PM 23.11 73.598 0.727 7.99 617 6.98
8/1/2022 9:30:00 PM 23.08 73.544 0.728 7.98 883.9 6.99
8/1/2022 9:45:00 PM 23.04 73.472 0.728 7.98 744.8 6.99
8/1/2022 10:00:00 PM 23 73.4 0.727 7.98 982.9 6.92
8/1/2022 10:15:00 PM 22.96 73.328 0.725 7.98 619.9 6.88
8/1/2022 10:30:00 PM 22.92 73.256 0.723 7.97 1115 6.86
8/1/2022 10:45:00 PM 22.88 73.184 0.721 7.98 468.1 6.9
8/1/2022 11:00:00 PM 22.84 73.112 0.718 7.98 455.2 6.91
8/1/2022 11:15:00 PM 22.8 73.04 0.715 7.97 959.4 6.9
8/1/2022 11:30:00 PM 22.77 72.986 0.713 7.96 1098 6.85
8/1/2022 11:45:00 PM 22.73 72.914 0.71 7.95 1170 6.85
8/2/2022 12:00:00 AM 22.68 72.824 0.707 7.95 778.6 6.79
8/2/2022 12:15:00 AM 22.65 72.77 0.705 7.95 808 6.85
8/2/2022 12:30:00 AM 22.61 72.698 0.702 7.95 793.7 6.86
8/2/2022 12:45:00 AM 22.58 72.644 0.7 7.94 699.7 6.84
8/2/2022 1:00:00 AM 22.54 72.57201 0.698 7.93 928.2 6.83
8/2/2022 1:15:00 AM 22.51 72.518 0.697 7.92 792.9 6.82
8/2/2022 1:30:00 AM 22.48 72.464 0.696 7.92 1033 6.85
8/2/2022 1:45:00 AM 22.44 72.392 0.695 7.92 718.6 6.86
8/2/2022 2:00:00 AM 22.41 72.338 0.696 7.92 1077 6.88
8/2/2022 2:15:00 AM 22.37 72.266 0.697 7.91 818.6 6.85
8/2/2022 2:30:00 AM 22.35 72.23 0.698 7.91 537.5 6.84
8/2/2022 2:45:00 AM 22.32 72.176 0.7 7.91 176.1 6.83
8/2/2022 3:00:00 AM 22.29 72.122 0.702 7.91 218.4 6.82
8/2/2022 3:15:00 AM 22.27 72.086 0.705 7.91 879.4 6.82
8/2/2022 3:30:00 AM 22.25 72.05 0.707 7.91 790.8 6.81
8/2/2022 3:45:00 AM 22.22 71.996 0.711 7.91 663 6.87
8/2/2022 4:00:00 AM 22.2 71.96 0.714 7.91 761.2 6.91
8/2/2022 4:15:00 AM 22.17 71.906 0.718 7.92 761.1 6.9
8/2/2022 4:30:00 AM 22.14 71.852 0.722 7.92 223.5 6.89
8/2/2022 4:45:00 AM 22.11 71.798 0.725 7.93 867 6.85
8/2/2022 5:00:00 AM 22.09 71.762 0.73 7.94 642.3 6.95
8/2/2022 5:15:00 AM 22.06 71.708 0.734 7.93 504 6.82
8/2/2022 5:30:00 AM 22.03 71.654 0.738 7.94 708 6.86
8/2/2022 5:45:00 AM 22 71.6 0.742 7.94 342.8 6.82
8/2/2022 6:00:00 AM 21.97 71.546 0.746 7.95 368.2 6.81
8/2/2022 6:15:00 AM 21.94 71.492 0.751 7.95 282.5 6.85
8/2/2022 6:30:00 AM 21.92 71.456 0.754 7.94 435.9 6.9
8/2/2022 6:45:00 AM 21.9 71.42 0.758 7.94 449.3 6.95
8/2/2022 7:00:00 AM 21.89 71.402 0.762 7.93 740.7 6.97
8/2/2022 7:15:00 AM 21.87 71.366 0.765 7.93 545.3 6.95
8/2/2022 7:30:00 AM 21.84 71.312 0.769 7.93 380.5 7.05
8/2/2022 7:45:00 AM 21.83 71.294 0.773 7.94 630.5 7.03
8/2/2022 8:00:00 AM 21.83 71.294 0.776 7.93 956.8 7.06
8/2/2022 8:15:00 AM 21.83 71.294 0.78 7.92 568.4 7.1
8/2/2022 8:30:00 AM 21.83 71.294 0.783 7.91 343.9 7.13
8/2/2022 8:45:00 AM 21.83 71.294 0.785 7.9 627.9 7.13
8/2/2022 9:00:00 AM 21.84 71.312 0.788 7.9 1217 7.16
8/2/2022 9:15:00 AM 21.85 71.33 0.791 7.91 795.1 7.21
8/2/2022 9:30:00 AM 21.88 71.384 0.793 7.91 574.9 7.21
8/2/2022 9:45:00 AM 21.91 71.438 0.795 7.92 783.5 7.23
8/2/2022 10:00:00 AM 21.96 71.528 0.796 7.92 807.1 7.33
8/2/2022 10:15:00 AM 22.05 71.69 0.798 7.92 118.6 7.34
8/2/2022 10:30:00 AM 22.19 71.942 0.799 7.93 888 7.48
8/2/2022 10:45:00 AM 22.41 72.338 0.799 7.94 626.6 7.68
8/2/2022 11:00:00 AM 22.58 72.644 0.8 7.95 617 7.82
8/2/2022 11:15:00 AM 22.76 72.968 0.8 7.97 290.3 7.93
8/2/2022 11:30:00 AM 22.91 73.238 0.8 7.98 699.8 8.06
8/2/2022 11:45:00 AM 23.18 73.724 0.799 8 788.6 8.2
8/2/2022 12:00:00 PM 23.3 73.94 0.798 8.02 435.6 8.31
8/2/2022 12:15:00 PM 23.47 74.246 0.797 8.04 699.1 8.31
8/2/2022 12:30:00 PM 23.73 74.714 0.795 8.06 559.3 8.47
8/2/2022 12:45:00 PM 23.81 74.858 0.794 8.07 467.2 8.5
8/2/2022 1:00:00 PM 23.76 74.768 0.792 8.07 676.3 8.39
8/2/2022 1:15:00 PM 23.89 75.002 0.789 8.09 703.1 8.57
8/2/2022 1:30:00 PM 24.08 75.344 0.787 8.1 541.2 8.66
8/2/2022 1:45:00 PM 24.26 75.668 0.784 8.12 378.9 8.74
8/2/2022 2:00:00 PM 24.37 75.866 0.781 8.14 477 8.77
8/2/2022 2:15:00 PM 24.55 76.19 0.777 8.16 245.9 8.78
8/2/2022 2:30:00 PM 24.6 76.28 0.774 8.16 783.9 8.75
8/2/2022 2:45:00 PM 24.65 76.37 0.77 8.16 747.2 8.69
8/2/2022 3:00:00 PM 24.72 76.496 0.766 8.17 574.1 8.69
8/2/2022 3:15:00 PM 24.82 76.676 0.762 8.16 344.9 8.63
8/2/2022 3:30:00 PM 24.91 76.838 0.757 8.18 590.6 8.63
8/2/2022 3:45:00 PM 24.91 76.838 0.753 8.19 491.4 8.56
8/2/2022 4:00:00 PM 24.93 76.874 0.749 8.18 531.4 8.46
8/2/2022 4:15:00 PM 25 77 0.744 8.18 666.1 8.42
8/2/2022 4:30:00 PM 24.97 76.946 0.74 8.18 855.4 8.27
8/2/2022 4:45:00 PM 25 77 0.735 8.17 450.9 8.29
8/2/2022 5:00:00 PM 24.93 76.874 0.732 8.14 489.5 8.07
8/2/2022 5:15:00 PM 24.88 76.784 0.728 8.15 184.1 7.93
8/2/2022 5:30:00 PM 24.86 76.748 0.724 8.15 768.4 7.88
8/2/2022 5:45:00 PM 24.83 76.694 0.719 8.15 476 7.89
8/2/2022 6:00:00 PM 24.8 76.64 0.717 8.14 241.5 7.78
8/2/2022 6:15:00 PM 24.74 76.532 0.714 8.13 624.1 7.66
8/2/2022 6:30:00 PM 24.7 76.46 0.71 8.12 469.2 7.59
8/2/2022 6:45:00 PM 24.66 76.388 0.707 8.12 618.6 7.5
8/2/2022 7:00:00 PM 24.63 76.334 0.705 8.11 353.2 7.4
8/2/2022 7:15:00 PM 24.61 76.298 0.703 8.08 308.5 7.29
8/2/2022 7:30:00 PM 24.58 76.244 0.7 8.09 334.6 7.26
8/2/2022 7:45:00 PM 24.56 76.208 0.698 8.1 503.3 7.2
8/2/2022 8:00:00 PM 24.53 76.154 0.697 8.09 646.1 7.08
8/2/2022 8:15:00 PM 24.52 76.136 0.695 8.08 724.9 7.13
8/2/2022 8:30:00 PM 24.47 76.046 0.694 8.07 553 6.93
8/2/2022 8:45:00 PM 24.46 76.028 0.693 8.08 572.6 6.95
8/2/2022 9:00:00 PM 24.43 75.974 0.693 8.08 740.1 6.94
8/2/2022 9:15:00 PM 24.39 75.902 0.693 8.07 1071 6.81
8/2/2022 9:30:00 PM 24.35 75.83 0.693 8.07 517.5 6.82
8/2/2022 9:45:00 PM 24.31 75.758 0.693 8.07 560.8 6.79
8/2/2022 10:00:00 PM 24.28 75.704 0.694 8.07 426.7 6.79
8/2/2022 10:15:00 PM 24.25 75.65 0.695 8.06 352 6.68
8/2/2022 10:30:00 PM 24.21 75.578 0.696 8.04 567.5 6.68
8/2/2022 10:45:00 PM 24.17 75.506 0.697 8.04 670.5 6.63
8/2/2022 11:00:00 PM 24.12 75.416 0.698 8.03 1007 6.62
8/2/2022 11:15:00 PM 24.07 75.326 0.699 8.03 908 6.56
8/2/2022 11:30:00 PM 24.03 75.254 0.701 8.02 467.3 6.58
8/2/2022 11:45:00 PM 23.98 75.164 0.703 8.02 350.6 6.56
8/3/2022 12:00:00 AM 23.93 75.074 0.705 8.01 622.1 6.5
8/3/2022 12:15:00 AM 23.88 74.984 0.707 8.01 270.4 6.51
8/3/2022 12:30:00 AM 23.82 74.876 0.709 8 482.3 6.52
8/3/2022 12:45:00 AM 23.77 74.786 0.712 7.99 1120 6.43
8/3/2022 1:00:00 AM 23.72 74.696 0.714 7.99 377.7 6.51
8/3/2022 1:15:00 AM 23.67 74.606 0.717 7.99 932.6 6.54
8/3/2022 1:30:00 AM 23.61 74.498 0.719 7.98 415.8 6.46
8/3/2022 1:45:00 AM 23.56 74.408 0.722 7.98 816.8 6.5
8/3/2022 2:00:00 AM 23.5 74.3 0.724 7.97 692.5 6.47
8/3/2022 2:15:00 AM 23.45 74.21 0.727 7.96 869.1 6.44
8/3/2022 2:30:00 AM 23.4 74.12 0.729 7.96 729.2 6.41
8/3/2022 2:45:00 AM 23.34 74.012 0.732 7.96 871.4 6.45
8/3/2022 3:00:00 AM 23.29 73.922 0.735 7.96 790.8 6.46
8/3/2022 3:15:00 AM 23.23 73.814 0.737 7.96 692.8 6.44
8/3/2022 3:30:00 AM 23.17 73.706 0.74 7.95 711.6 6.5
8/3/2022 3:45:00 AM 23.12 73.616 0.742 7.95 587.3 6.43
8/3/2022 4:00:00 AM 23.06 73.508 0.745 7.96 230.8 6.57
8/3/2022 4:15:00 AM 23.01 73.418 0.747 7.97 653.2 6.5
8/3/2022 4:30:00 AM 22.96 73.328 0.749 7.96 587.6 6.59
8/3/2022 4:45:00 AM 22.89 73.202 0.752 7.96 1093 6.59
8/3/2022 5:00:00 AM 22.84 73.112 0.754 7.95 714.9 6.61
8/3/2022 5:15:00 AM 22.79 73.022 0.756 7.94 111.5 6.57
8/3/2022 5:30:00 AM 22.73 72.914 0.758 7.94 612.9 6.67
8/3/2022 5:45:00 AM 22.68 72.824 0.759 7.94 1068 6.66
8/3/2022 6:00:00 AM 22.62 72.716 0.761 7.92 304.9 6.66
8/3/2022 6:15:00 AM 22.56 72.608 0.763 7.93 927.1 6.61
8/3/2022 6:30:00 AM 22.51 72.518 0.764 7.93 609.7 6.63
8/3/2022 6:45:00 AM 22.46 72.42799 0.766 7.93 754.1 6.73
8/3/2022 7:00:00 AM 22.4 72.32 0.767 7.93 926.6 6.76
8/3/2022 7:15:00 AM 22.36 72.248 0.769 7.91 964.1 6.79
8/3/2022 7:30:00 AM 22.31 72.158 0.77 7.92 745.1 6.77
8/3/2022 7:45:00 AM 22.27 72.086 0.771 7.9 521.9 6.84
8/3/2022 8:00:00 AM 22.23 72.014 0.772 7.89 322.7 6.85
8/3/2022 8:15:00 AM 22.2 71.96 0.773 7.89 452.7 6.89
8/3/2022 8:30:00 AM 22.19 71.942 0.774 7.89 485.9 6.91
8/3/2022 8:45:00 AM 22.17 71.906 0.775 7.88 1138 6.83
8/3/2022 9:00:00 AM 22.14 71.852 0.776 7.88 778.4 6.99
8/3/2022 9:15:00 AM 22.13 71.834 0.777 7.88 664.9 7.01
8/3/2022 9:30:00 AM 22.13 71.834 0.778 7.87 920.4 7.03
8/3/2022 9:45:00 AM 22.14 71.852 0.779 7.86 780.7 7.11
8/3/2022 10:00:00 AM 22.18 71.924 0.78 7.85 861 7.16
8/3/2022 10:15:00 AM 22.26 72.068 0.78 7.86 720.9 7.28
8/3/2022 10:30:00 AM 22.37 72.266 0.781 7.86 563.4 7.38
8/3/2022 10:45:00 AM 22.7 72.86 0.78 7.87 430.2 7.54
8/3/2022 11:00:00 AM 22.81 73.058 0.782 7.89 1002 7.83
8/3/2022 11:15:00 AM 23.01 73.418 0.782 7.89 168.5 7.89
8/3/2022 11:30:00 AM 23.16 73.688 0.783 7.92 673.2 8.02
8/3/2022 11:45:00 AM 23.44 74.192 0.783 7.93 552.7 8.18
8/3/2022 12:00:00 PM 23.57 74.426 0.784 7.96 564.4 8.3
8/3/2022 12:15:00 PM 23.72 74.696 0.785 8 874.5 8.37
8/3/2022 12:30:00 PM 24.01 75.218 0.784 8.01 1014 8.57
8/3/2022 12:45:00 PM 24.17 75.506 0.784 8.04 988.3 8.53
8/3/2022 1:00:00 PM 24.32 75.776 0.785 8.08 920.6 8.7
8/3/2022 1:15:00 PM 24.41 75.938 0.785 8.1 109.5 8.65
8/3/2022 1:30:00 PM 24.51 76.118 0.786 8.1 1013 8.77
8/3/2022 1:45:00 PM 24.68 76.424 0.785 8.12 1078 8.79
8/3/2022 2:00:00 PM 24.77 76.586 0.785 8.13 752 8.69
8/3/2022 2:15:00 PM 24.86 76.748 0.786 8.15 394.1 8.8
8/3/2022 2:30:00 PM 25.02 77.036 0.785 8.16 409.2 8.75
8/3/2022 2:45:00 PM 25.13 77.234 0.785 8.17 682.5 8.86
8/3/2022 3:00:00 PM 25.21 77.378 0.785 8.17 915.7 8.73
8/3/2022 3:15:00 PM 25.24 77.432 0.785 8.18 899.8 8.59
8/3/2022 3:30:00 PM 25.32 77.576 0.784 8.18 761.6 8.63
8/3/2022 3:45:00 PM 25.32 77.576 0.784 8.2 942 8.56
8/3/2022 4:00:00 PM 25.37 77.666 0.783 8.2 1087 8.48
8/3/2022 4:15:00 PM 25.39 77.702 0.783 8.2 710.5 8.31
8/3/2022 4:30:00 PM 25.35 77.63 0.782 8.2 875.6 8.26
8/3/2022 4:45:00 PM 25.34 77.612 0.781 8.18 707.8 8.12
8/3/2022 5:00:00 PM 25.31 77.558 0.781 8.17 991.3 8.03
8/3/2022 5:15:00 PM 25.27 77.486 0.78 8.18 118.2 7.97
8/3/2022 5:30:00 PM 25.22 77.396 0.78 8.18 991.5 7.82
8/3/2022 5:45:00 PM 25.17 77.306 0.779 8.18 115.3 7.7
8/3/2022 6:00:00 PM 25.11 77.198 0.778 8.16 986.5 7.64
8/3/2022 6:15:00 PM 25.06 77.108 0.777 8.16 889.3 7.63
8/3/2022 6:30:00 PM 25.02 77.036 0.777 8.14 3650 7.5
8/3/2022 6:45:00 PM 24.98 76.964 0.776 8.15 612.1 7.46
8/3/2022 7:00:00 PM 24.94 76.892 0.775 8.14 797.9 7.37
8/3/2022 7:15:00 PM 24.91 76.838 0.774 8.14 127.9 7.3
8/3/2022 7:30:00 PM 24.86 76.748 0.774 8.12 985.4 7.26
8/3/2022 7:45:00 PM 24.85 76.73 0.773 8.11 682.3 7.08
8/3/2022 8:00:00 PM 24.84 76.712 0.772 8.12 1120 7.09
8/3/2022 8:15:00 PM 24.82 76.676 0.771 8.13 107 7.01
8/3/2022 8:30:00 PM 24.82 76.676 0.77 8.13 300.2 6.92
8/3/2022 8:45:00 PM 24.82 76.676 0.77 8.12 455.2 6.92
8/3/2022 9:00:00 PM 24.8 76.64 0.769 8.12 488.1 6.89
8/3/2022 9:15:00 PM 24.79 76.622 0.768 8.13 587.8 6.87
8/3/2022 9:30:00 PM 24.78 76.604 0.767 8.12 321.1 6.77
8/3/2022 9:45:00 PM 24.76 76.568 0.766 8.12 389.7 6.82
8/3/2022 10:00:00 PM 24.75 76.55 0.765 8.1 485.5 6.71
8/3/2022 10:15:00 PM 24.72 76.496 0.765 8.1 547.4 6.67
8/3/2022 10:30:00 PM 24.68 76.424 0.764 8.1 276.5 6.7
8/3/2022 10:45:00 PM 24.68 76.424 0.763 8.1 573.3 6.7
8/3/2022 11:00:00 PM 24.65 76.37 0.762 8.09 598.7 6.63
8/3/2022 11:15:00 PM 24.61 76.298 0.762 8.09 709.3 6.54
8/3/2022 11:30:00 PM 24.58 76.244 0.76 8.08 509.9 6.55
8/3/2022 11:45:00 PM 24.55 76.19 0.76 8.08 397.6 6.54
8/4/2022 12:00:00 AM 24.49 76.082 0.759 8.08 415.5 6.53
8/4/2022 12:15:00 AM 24.46 76.028 0.758 8.06 441 6.49
8/4/2022 12:30:00 AM 24.41 75.938 0.756 8.05 394.1 6.5
8/4/2022 12:45:00 AM 24.37 75.866 0.758 8.05 483.1 6.45
8/4/2022 1:00:00 AM 24.32 75.776 0.756 8.05 526.1 6.51
8/4/2022 1:15:00 AM 24.27 75.686 0.756 8.03 471 6.43
8/4/2022 1:30:00 AM 24.22 75.596 0.755 8.03 259.1 6.42
8/4/2022 1:45:00 AM 24.17 75.506 0.755 8.04 397.2 6.44
8/4/2022 2:00:00 AM 24.12 75.416 0.753 8.03 294.9 6.46
8/4/2022 2:15:00 AM 24.08 75.344 0.753 8.03 248.3 6.5
8/4/2022 2:30:00 AM 24.02 75.236 0.752 8.03 329.1 6.42
8/4/2022 2:45:00 AM 23.97 75.146 0.751 8.03 610.5 6.5
8/4/2022 3:00:00 AM 23.92 75.056 0.75 8 235.8 6.46
8/4/2022 3:15:00 AM 23.87 74.966 0.749 8.01 380.6 6.49
8/4/2022 3:30:00 AM 23.82 74.876 0.748 7.99 392.2 6.48
8/4/2022 3:45:00 AM 23.77 74.786 0.747 7.99 354.6 6.49
8/4/2022 4:00:00 AM 23.72 74.696 0.746 7.99 752.3 6.53
8/4/2022 4:15:00 AM 23.67 74.606 0.745 7.96 129 6.53
8/4/2022 4:30:00 AM 23.62 74.516 0.744 7.95 939.8 6.49
8/4/2022 4:45:00 AM 23.58 74.444 0.743 7.96 533.8 6.57
8/4/2022 5:00:00 AM 23.53 74.354 0.742 7.96 739.2 6.48
8/4/2022 5:15:00 AM 23.48 74.264 0.741 7.95 664 6.5
8/4/2022 5:30:00 AM 23.43 74.174 0.74 7.95 450 6.54
8/4/2022 5:45:00 AM 23.39 74.102 0.739 7.95 540.1 6.58
8/4/2022 6:00:00 AM 23.34 74.012 0.738 7.95 617.7 6.62
8/4/2022 6:15:00 AM 23.3 73.94 0.737 7.94 586.5 6.59
8/4/2022 6:30:00 AM 23.26 73.868 0.737 7.93 890.5 6.61
8/4/2022 6:45:00 AM 23.22 73.796 0.736 7.93 845.1 6.6
8/4/2022 7:00:00 AM 23.19 73.742 0.735 7.92 766.6 6.63
8/4/2022 7:15:00 AM 23.16 73.688 0.735 7.92 844.4 6.64
8/4/2022 7:30:00 AM 23.13 73.634 0.734 7.91 792.7 6.7
8/4/2022 7:45:00 AM 23.11 73.598 0.734 7.9 781.9 6.77
8/4/2022 8:00:00 AM 23.1 73.58 0.733 7.9 753.5 6.78
8/4/2022 8:15:00 AM 23.08 73.544 0.733 7.9 915.6 6.8
8/4/2022 8:30:00 AM 23.07 73.526 0.732 7.89 599.1 6.83
8/4/2022 8:45:00 AM 23.06 73.508 0.732 7.88 582.3 6.81
8/4/2022 9:00:00 AM 23.07 73.526 0.732 7.88 689.5 6.9
8/4/2022 9:15:00 AM 23.07 73.526 0.731 7.89 542.3 6.97
8/4/2022 9:30:00 AM 23.1 73.58 0.731 7.89 581 6.97
8/4/2022 9:45:00 AM 23.13 73.634 0.731 7.89 876.1 7.04
8/4/2022 10:00:00 AM 23.17 73.706 0.731 7.89 793.3 7.06
8/4/2022 10:15:00 AM 23.27 73.886 0.731 7.89 725.5 7.26
8/4/2022 10:30:00 AM 23.39 74.102 0.732 7.9 901.2 7.39
8/4/2022 10:45:00 AM 23.7 74.66 0.731 7.93 725.4 7.49
8/4/2022 11:00:00 AM 23.86 74.948 0.732 7.97 358.7 7.72
8/4/2022 11:15:00 AM 24.06 75.308 0.733 7.99 756.2 7.9
8/4/2022 11:30:00 AM 24.22 75.596 0.734 8.01 611.2 8.03
8/4/2022 11:45:00 AM 24.48 76.064 0.734 8.02 793.1 8.14
8/4/2022 12:00:00 PM 24.61 76.298 0.735 8.05 413.9 8.03
8/4/2022 12:15:00 PM 24.82 76.676 0.736 8.05 546 7.97
8/4/2022 12:30:00 PM 25.08 77.144 0.736 8.08 433.5 8.23
8/4/2022 12:45:00 PM 25.2 77.36 0.738 8.11 576.7 8.12
8/4/2022 1:00:00 PM 25.35 77.63 0.738 8.11 741.9 8.27
8/4/2022 1:15:00 PM 25.5 77.9 0.739 8.14 864 8.62
8/4/2022 1:30:00 PM 25.59 78.062 0.74 8.15 548 8.77
8/4/2022 1:45:00 PM 25.68 78.224 0.741 8.16 506.2 8.82
8/4/2022 2:00:00 PM 25.84 78.512 0.742 8.17 686 8.83
8/4/2022 2:15:00 PM 25.99 78.782 0.744 8.18 859 8.85
8/4/2022 2:30:00 PM 26.12 79.016 0.745 8.19 602.5 8.9
8/4/2022 2:45:00 PM 26.24 79.232 0.747 8.2 1020 8.86
8/4/2022 3:00:00 PM 26.33 79.394 0.748 8.21 774.8 8.83
8/4/2022 3:15:00 PM 26.41 79.538 0.75 8.23 865.3 8.89
8/4/2022 3:30:00 PM 26.46 79.628 0.751 8.23 793.7 8.84
8/4/2022 3:45:00 PM 26.5 79.7 0.753 8.25 462.9 8.77
8/4/2022 4:00:00 PM 26.55 79.79 0.755 8.26 922.4 8.73
8/4/2022 4:15:00 PM 26.56 79.808 0.756 8.27 925.7 8.64
8/4/2022 4:30:00 PM 26.56 79.808 0.758 8.26 969 8.49
8/4/2022 4:45:00 PM 26.52 79.736 0.759 8.27 900.8 8.43
8/4/2022 5:00:00 PM 26.48 79.664 0.761 8.26 843.8 8.29
8/4/2022 5:15:00 PM 26.42 79.556 0.763 8.26 682.5 8.18
8/4/2022 5:30:00 PM 26.3 79.34 0.765 8.25 730 7.86
8/4/2022 5:45:00 PM 26.18 79.124 0.767 8.23 998.1 7.89
8/4/2022 6:00:00 PM 26.13 79.034 0.768 8.23 1035 7.86
8/4/2022 6:15:00 PM 26.08 78.944 0.77 8.22 989.3 7.68
8/4/2022 6:30:00 PM 26.04 78.872 0.772 8.22 732.4 7.6
8/4/2022 6:45:00 PM 25.98 78.764 0.771 8.22 871.9 7.52
8/4/2022 7:00:00 PM 25.93 78.674 0.775 8.21 868.3 7.39
8/4/2022 7:15:00 PM 25.87 78.566 0.772 8.22 957.4 7.26
8/4/2022 7:30:00 PM 25.81 78.458 0.777 8.19 107.7 7.1
8/4/2022 7:45:00 PM 25.75 78.35 0.779 8.18 230.3 6.98
8/4/2022 8:00:00 PM 25.72 78.296 0.78 8.17 512.2 6.93
8/4/2022 8:15:00 PM 25.67 78.206 0.782 8.16 768 6.8
8/4/2022 8:30:00 PM 25.61 78.098 0.784 8.17 632.3 6.67
8/4/2022 8:45:00 PM 25.57 78.026 0.785 8.18 968.4 6.78
8/4/2022 9:00:00 PM 25.55 77.99 0.786 8.16 358.3 6.75
8/4/2022 9:15:00 PM 25.49 77.882 0.788 8.16 485.2 6.68
8/4/2022 9:30:00 PM 25.46 77.828 0.79 8.14 328.2 6.66
8/4/2022 9:45:00 PM 25.43 77.774 0.792 8.14 796.8 6.6
8/4/2022 10:00:00 PM 25.41 77.738 0.794 8.13 649.8 6.55
8/4/2022 10:15:00 PM 25.36 77.648 0.796 8.13 334.5 6.52
8/4/2022 10:30:00 PM 25.33 77.594 0.797 8.13 729 6.5
8/4/2022 10:45:00 PM 25.29 77.522 0.799 8.13 828.2 6.45
8/4/2022 11:00:00 PM 25.25 77.45 0.801 8.11 412.4 6.4
8/4/2022 11:15:00 PM 25.2 77.36 0.803 8.11 529.3 6.32
8/4/2022 11:30:00 PM 25.17 77.306 0.805 8.11 745.2 6.34
8/4/2022 11:45:00 PM 25.12 77.216 0.806 8.1 588.3 6.32
8/5/2022 12:00:00 AM 25.08 77.144 0.808 8.1 64 6.32
8/5/2022 12:15:00 AM 25.05 77.09 0.81 8.09 66.1 6.29
8/5/2022 12:30:00 AM 25 77 0.812 8.08 261.3 6.2
8/5/2022 12:45:00 AM 24.96 76.92799 0.814 8.07 348.2 6.25
8/5/2022 1:00:00 AM 24.91 76.838 0.816 8.07 261.8 6.22
8/5/2022 1:15:00 AM 24.88 76.784 0.818 8.07 526.2 6.24
8/5/2022 1:30:00 AM 24.83 76.694 0.816 8.01 318.4 6.15
8/5/2022 1:45:00 AM 24.8 76.64 0.822 8.01 562.8 6.3
8/5/2022 2:00:00 AM 24.76 76.568 0.823 8 241.9 6.21
8/5/2022 2:15:00 AM 24.72 76.496 0.825 8.01 319.4 6.23
8/5/2022 2:30:00 AM 24.69 76.442 0.827 8.01 411 6.29
8/5/2022 2:45:00 AM 24.64 76.352 0.828 8.01 329.9 6.25
8/5/2022 3:00:00 AM 24.6 76.28 0.83 7.99 485.8 6.24
8/5/2022 3:15:00 AM 24.55 76.19 0.832 7.98 297.2 6.15
8/5/2022 3:30:00 AM 24.51 76.118 0.834 7.98 605.9 6.19
8/5/2022 3:45:00 AM 24.47 76.046 0.835 7.98 511.8 6.26
8/5/2022 4:00:00 AM 24.42 75.956 0.837 7.97 447.5 6.17
8/5/2022 4:15:00 AM 24.38 75.884 0.838 7.98 192.9 6.24
8/5/2022 4:30:00 AM 24.33 75.794 0.84 7.98 349.5 6.25
8/5/2022 4:45:00 AM 24.27 75.686 0.842 7.97 457 6.24
8/5/2022 5:00:00 AM 24.22 75.596 0.843 7.97 71.98 6.26
8/5/2022 5:15:00 AM 24.18 75.524 0.844 7.97 79.33 6.29
8/5/2022 5:30:00 AM 24.14 75.452 0.846 7.96 74.62 6.23
8/5/2022 5:45:00 AM 24.1 75.38 0.847 7.96 70.19 6.28
8/5/2022 6:00:00 AM 24.05 75.29 0.848 7.95 70.9 6.2
8/5/2022 6:15:00 AM 24.01 75.218 0.85 7.96 67.05 6.27
8/5/2022 6:30:00 AM 23.97 75.146 0.851 7.96 65.16 6.25
8/5/2022 6:45:00 AM 23.93 75.074 0.852 7.95 72.39 6.33
8/5/2022 7:00:00 AM 23.91 75.038 0.853 7.94 67.59 6.41
8/5/2022 7:15:00 AM 23.89 75.002 0.854 7.94 65.28 6.46
8/5/2022 7:30:00 AM 23.88 74.984 0.855 7.94 66.03 6.47
8/5/2022 7:45:00 AM 23.88 74.984 0.856 7.94 71.05 6.55
8/5/2022 8:00:00 AM 23.86 74.948 0.857 7.94 71.83 6.61
8/5/2022 8:15:00 AM 23.84 74.912 0.858 7.94 82 6.63
8/5/2022 8:30:00 AM 23.82 74.876 0.859 7.94 66.48 6.58
8/5/2022 8:45:00 AM 23.81 74.858 0.86 7.93 67.06 6.72
8/5/2022 9:00:00 AM 23.83 74.894 0.861 7.94 75.47 6.82
8/5/2022 9:15:00 AM 23.84 74.912 0.862 7.94 61.81 6.9
8/5/2022 9:30:00 AM 23.86 74.948 0.862 7.94 72.93 7.06
8/5/2022 9:45:00 AM 23.89 75.002 0.863 7.96 60.83 7.18
8/5/2022 10:00:00 AM 23.91 75.038 0.864 7.97 62.8 7.3
8/5/2022 10:15:00 AM 23.9 75.02 0.865 7.97 63.04 7.27
8/5/2022 10:30:00 AM 23.89 75.002 0.865 7.97 73.67 7.14
8/5/2022 10:45:00 AM 23.87 74.966 0.866 7.98 62.83 7.18
8/5/2022 11:00:00 AM 23.86 74.948 0.867 7.97 63.3 7.12
8/5/2022 11:15:00 AM 23.89 75.002 0.867 7.98 61.59 7.18
8/5/2022 11:30:00 AM 23.97 75.146 0.867 8 64.47 7.59
8/5/2022 11:45:00 AM 24.04 75.272 0.868 8.01 66.01 7.55
8/5/2022 12:00:00 PM 24.08 75.344 0.87 8.02 59.04 7.73
8/5/2022 12:15:00 PM 24.17 75.506 0.87 8.03 53.42 7.85
8/5/2022 12:30:00 PM 24.43 75.974 0.87 8.05 65.86 8.15
8/5/2022 12:45:00 PM 24.56 76.208 0.872 8.08 55.99 8.35
8/5/2022 1:00:00 PM 24.59 76.262 0.872 8.09 50.7 8.39
8/5/2022 1:15:00 PM 24.61 76.298 0.873 8.09 65.23 8.39
8/5/2022 1:30:00 PM 24.8 76.64 0.873 8.12 51.67 8.51
8/5/2022 1:45:00 PM 24.96 76.92799 0.875 8.12 51.74 8.54
8/5/2022 2:00:00 PM 25.09 77.162 0.875 8.14 59.01 8.66
8/5/2022 2:15:00 PM 25.11 77.198 0.876 8.16 60.95 8.78
8/5/2022 2:30:00 PM 25.11 77.198 0.876 8.17 54.61 8.64
8/5/2022 2:45:00 PM 25.17 77.306 0.877 8.18 68.83 8.66
8/5/2022 3:00:00 PM 25.34 77.612 0.877 8.19 59.47 8.78
8/5/2022 3:15:00 PM 25.5 77.9 0.878 8.2 51.31 8.95
8/5/2022 3:30:00 PM 25.6 78.08 0.879 8.21 50.19 8.92
8/5/2022 3:45:00 PM 25.65 78.17 0.88 8.23 50.99 8.89
8/5/2022 4:00:00 PM 25.61 78.098 0.881 8.23 52.97 8.82
8/5/2022 4:15:00 PM 25.58 78.044 0.881 8.23 54.13 8.68
8/5/2022 4:30:00 PM 25.67 78.206 0.882 8.24 50.79 8.75
8/5/2022 4:45:00 PM 25.67 78.206 0.882 8.24 51.4 8.67
8/5/2022 5:00:00 PM 25.67 78.206 0.883 8.24 50.72 8.59
8/5/2022 5:15:00 PM 25.65 78.17 0.884 8.24 52.59 8.43
8/5/2022 5:30:00 PM 25.61 78.098 0.886 8.23 53.79 8.18
8/5/2022 5:45:00 PM 25.59 78.062 0.887 8.24 50.34 8.19
8/5/2022 6:00:00 PM 25.55 77.99 0.887 8.23 51.96 8.02
8/5/2022 6:15:00 PM 25.52 77.936 0.888 8.23 52.49 7.98
8/5/2022 6:30:00 PM 25.49 77.882 0.888 8.22 51.06 7.84
8/5/2022 6:45:00 PM 25.47 77.846 0.889 8.22 49.41 7.8
8/5/2022 7:00:00 PM 25.43 77.774 0.889 8.22 49.56 7.69
8/5/2022 7:15:00 PM 25.4 77.72 0.89 8.22 45.46 7.61
8/5/2022 7:30:00 PM 25.38 77.684 0.89 8.21 43.71 7.5
8/5/2022 7:45:00 PM 25.37 77.666 0.891 8.21 43.88 7.43
8/5/2022 8:00:00 PM 25.36 77.648 0.891 8.2 43.59 7.4
8/5/2022 8:15:00 PM 25.35 77.63 0.891 8.19 51.71 7.26
8/5/2022 8:30:00 PM 25.32 77.576 0.892 8.2 46.14 7.21
8/5/2022 8:45:00 PM 25.25 77.45 0.891 8.2 54.42 6.99
8/5/2022 9:00:00 PM 25.19 77.342 0.888 8.22 46.16 7.07
8/5/2022 9:15:00 PM 25.16 77.288 0.886 8.21 46.69 7.03
8/5/2022 9:30:00 PM 25.14 77.252 0.886 8.2 44.34 6.97
8/5/2022 9:45:00 PM 25.11 77.198 0.888 8.21 46.4 6.85
8/5/2022 10:00:00 PM 25.1 77.18 0.889 8.19 45.82 6.89
8/5/2022 10:15:00 PM 25.07 77.126 0.89 8.19 46.61 6.82
8/5/2022 10:30:00 PM 25.04 77.07201 0.891 8.18 45.63 6.8
8/5/2022 10:45:00 PM 25.02 77.036 0.891 8.17 45.96 6.76
8/5/2022 11:00:00 PM 24.99 76.982 0.892 8.16 48.1 6.71
8/5/2022 11:15:00 PM 24.96 76.92799 0.893 8.16 47.61 6.74
8/5/2022 11:30:00 PM 24.93 76.874 0.894 8.17 48.55 6.7
8/5/2022 11:45:00 PM 24.9 76.82 0.895 8.16 48.92 6.67
8/6/2022 12:00:00 AM 24.87 76.766 0.895 8.15 46.95 6.63
8/6/2022 12:15:00 AM 24.83 76.694 0.896 8.15 51.38 6.64
8/6/2022 12:30:00 AM 24.79 76.622 0.896 8.14 50.25 6.63
8/6/2022 12:45:00 AM 24.76 76.568 0.897 8.13 49.73 6.63
8/6/2022 1:00:00 AM 24.72 76.496 0.898 8.12 51.08 6.61
8/6/2022 1:15:00 AM 24.68 76.424 0.898 8.12 52.19 6.55
8/6/2022 1:30:00 AM 24.66 76.388 0.9 8.13 72.03 6.53
8/6/2022 1:45:00 AM 24.63 76.334 0.901 8.12 53.68 6.55
8/6/2022 2:00:00 AM 24.6 76.28 0.902 8.11 65.97 6.59
8/6/2022 2:15:00 AM 24.58 76.244 0.904 8.1 57.78 6.7
8/6/2022 2:30:00 AM 24.56 76.208 0.906 8.09 89.81 6.7
8/6/2022 2:45:00 AM 24.55 76.19 0.909 8.09 64.19 6.68
8/6/2022 3:00:00 AM 24.54 76.172 0.912 8.07 56.18 6.66
8/6/2022 3:15:00 AM 24.52 76.136 0.914 8.07 60.3 6.66
8/6/2022 3:30:00 AM 24.5 76.1 0.918 8.07 82.31 6.64
8/6/2022 3:45:00 AM 24.48 76.064 0.92 8.07 89.67 6.65
8/6/2022 4:00:00 AM 24.46 76.028 0.922 8.07 79.66 6.6
8/6/2022 4:15:00 AM 24.43 75.974 0.923 8.08 87.02 6.63
8/6/2022 4:30:00 AM 24.4 75.92 0.924 8.07 101.3 6.63
8/6/2022 4:45:00 AM 24.38 75.884 0.925 8.07 97.12 6.66
8/6/2022 5:00:00 AM 24.35 75.83 0.925 8.08 86.08 6.67
8/6/2022 5:15:00 AM 24.31 75.758 0.925 8.08 148.9 6.65
8/6/2022 5:30:00 AM 24.28 75.704 0.923 8.07 111.6 6.57
8/6/2022 5:45:00 AM 24.25 75.65 0.92 8.07 458.4 6.62
8/6/2022 6:00:00 AM 24.22 75.596 0.917 8.06 607.2 6.52
8/6/2022 6:15:00 AM 24.18 75.524 0.906 8.06 463 6.54
8/6/2022 6:30:00 AM 24.14 75.452 0.884 8.06 135.8 6.61
8/6/2022 6:45:00 AM 24.11 75.398 0.896 8.05 198.2 6.54
8/6/2022 7:00:00 AM 24.08 75.344 0.889 8.04 207.4 6.58
8/6/2022 7:15:00 AM 24.05 75.29 0.879 8.03 132.2 6.67
8/6/2022 7:30:00 AM 24.02 75.236 0.871 8.02 420.2 6.66
8/6/2022 7:45:00 AM 23.99 75.182 0.857 8.01 154.4 6.65
8/6/2022 8:00:00 AM 23.97 75.146 0.868 8.01 257.2 6.68
8/6/2022 8:15:00 AM 23.94 75.092 0.857 7.99 280.7 6.65
8/6/2022 8:30:00 AM 23.91 75.038 0.865 8 341.8 6.64
8/6/2022 8:45:00 AM 23.9 75.02 0.689 7.99 144.1 6.76
8/6/2022 9:00:00 AM 23.87 74.966 0.868 8 583.2 6.77
8/6/2022 9:15:00 AM 23.86 74.948 0.867 7.99 526.3 6.74
8/6/2022 9:30:00 AM 23.86 74.948 0.865 7.99 543.4 6.78
8/6/2022 9:45:00 AM 23.9 75.02 0.872 7.96 443.2 6.93
8/6/2022 10:00:00 AM 23.9 75.02 0.875 7.97 207.8 6.99
8/6/2022 10:15:00 AM 23.9 75.02 0.832 7.97 127 7.05
8/6/2022 10:30:00 AM 23.91 75.038 0.883 7.98 570.8 7.07
8/6/2022 10:45:00 AM 23.93 75.074 0.88 7.99 548.6 7.19
8/6/2022 11:00:00 AM 23.99 75.182 0.884 7.99 535.3 7.26
8/6/2022 11:15:00 AM 24.05 75.29 0.876 7.99 485.9 7.33
8/6/2022 11:30:00 AM 24.13 75.434 0.792 8.01 427.3 7.49
8/6/2022 11:45:00 AM 24.24 75.632 0.794 8.04 402.3 7.74
8/6/2022 12:00:00 PM 24.26 75.668 0.832 8.06 407.1 7.79
8/6/2022 12:15:00 PM 24.3 75.74 0.812 8.05 412.2 7.68
8/6/2022 12:30:00 PM 24.36 75.848 0.792 8.04 432.3 7.63
8/6/2022 12:45:00 PM 24.42 75.956 0.79 8.04 319.3 7.54
8/6/2022 1:00:00 PM 24.58 76.244 0.698 8.03 289.3 7.51
8/6/2022 1:15:00 PM 24.74 76.532 0.781 8.03 385 7.53
8/6/2022 1:30:00 PM 24.76 76.568 0.751 8.02 329 7.45
8/6/2022 1:45:00 PM 24.78 76.604 0.758 8.01 205.7 7.34
8/6/2022 2:00:00 PM 24.87 76.766 0.768 8 121.8 7.31
8/6/2022 2:15:00 PM 24.89 76.802 0.758 8 338.7 7.28
8/6/2022 2:30:00 PM 24.97 76.946 0.731 7.99 205 7.27
8/6/2022 2:45:00 PM 25.05 77.09 0.771 7.99 300.3 7.32
8/6/2022 3:00:00 PM 25.08 77.144 0.77 8 400.3 7.4
8/6/2022 3:15:00 PM 25.21 77.378 0.79 8 441.7 7.41
8/6/2022 3:30:00 PM 25.26 77.468 0.796 8 187.3 7.44
8/6/2022 3:45:00 PM 25.27 77.486 0.811 8.01 291 7.41
8/6/2022 4:00:00 PM 25.34 77.612 0.818 8.02 221 7.49
8/6/2022 4:15:00 PM 25.41 77.738 0.829 8.02 188.8 7.48
8/6/2022 4:30:00 PM 25.43 77.774 0.792 8.03 221.3 7.44
8/6/2022 4:45:00 PM 25.47 77.846 0.839 8.03 311.9 7.45
8/6/2022 5:00:00 PM 25.47 77.846 0.844 8.03 262.7 7.41
8/6/2022 5:15:00 PM 25.48 77.864 0.848 8.03 115.1 7.38
8/6/2022 5:30:00 PM 25.48 77.864 0.847 8.03 226.1 7.34
8/6/2022 5:45:00 PM 25.46 77.828 0.847 8.03 137.1 7.21
8/6/2022 6:00:00 PM 25.48 77.864 0.808 8.03 288.5 7.23
8/6/2022 6:15:00 PM 25.45 77.81 0.747 8.03 108 7.15
8/6/2022 6:30:00 PM 25.46 77.828 0.83 8.03 137.8 7.14
8/6/2022 6:45:00 PM 25.45 77.81 0.827 8.03 393 7.18
8/6/2022 7:00:00 PM 25.42 77.756 0.795 8.03 314.9 7.18
8/6/2022 7:15:00 PM 25.4 77.72 0.825 8.02 152.1 7.09
8/6/2022 7:30:00 PM 25.37 77.666 0.692 8.02 326.7 7.04
8/6/2022 7:45:00 PM 25.36 77.648 0.827 8.02 210.1 7.05
8/6/2022 8:00:00 PM 25.31 77.558 0.828 8.02 484.7 6.94
8/6/2022 8:15:00 PM 25.26 77.468 0.678 8.01 530.4 6.94
8/6/2022 8:30:00 PM 25.23 77.414 0.838 8.01 201.1 6.92
8/6/2022 8:45:00 PM 25.18 77.324 0.843 8.01 168.3 6.91
8/6/2022 9:00:00 PM 25.13 77.234 0.849 8.01 250 6.9
8/6/2022 9:15:00 PM 25.08 77.144 0.855 8.01 118.8 6.9
8/6/2022 9:30:00 PM 25.05 77.09 0.862 8.01 181.2 6.89
8/6/2022 9:45:00 PM 25 77 0.868 8.01 335.7 6.87
8/6/2022 10:00:00 PM 24.96 76.92799 0.875 8.01 109.5 6.85
8/6/2022 10:15:00 PM 24.92 76.856 0.881 8.01 340.9 6.84
8/6/2022 10:30:00 PM 24.88 76.784 0.887 8.02 138 6.8
8/6/2022 10:45:00 PM 24.84 76.712 0.893 8.02 189.2 6.82
8/6/2022 11:00:00 PM 24.8 76.64 0.898 8.01 124.8 6.79
8/6/2022 11:15:00 PM 24.76 76.568 0.904 8.02 384.9 6.82
8/6/2022 11:30:00 PM 24.72 76.496 0.909 8.02 233.1 6.77
8/6/2022 11:45:00 PM 24.68 76.424 0.913 8.02 462.1 6.77
8/7/2022 12:00:00 AM 24.65 76.37 0.918 8.02 136.3 6.8
8/7/2022 12:15:00 AM 24.62 76.316 0.922 8.02 128.9 6.72
8/7/2022 12:30:00 AM 24.59 76.262 0.925 8.02 115.7 6.75
8/7/2022 12:45:00 AM 24.57 76.226 0.929 8.02 198.4 6.76
8/7/2022 1:00:00 AM 24.55 76.19 0.932 8.01 149.6 6.71
8/7/2022 1:15:00 AM 24.53 76.154 0.935 8.01 127.5 6.7
8/7/2022 1:30:00 AM 24.51 76.118 0.938 8 123.5 6.69
8/7/2022 1:45:00 AM 24.49 76.082 0.941 8 129.2 6.7
8/7/2022 2:00:00 AM 24.47 76.046 0.943 8.01 162.6 6.69
8/7/2022 2:15:00 AM 24.44 75.992 0.945 8 133.6 6.7
8/7/2022 2:30:00 AM 24.42 75.956 0.948 8 219.7 6.66
8/7/2022 2:45:00 AM 24.4 75.92 0.95 8 267.3 6.65
8/7/2022 3:00:00 AM 24.37 75.866 0.952 8 160.1 6.63
8/7/2022 3:15:00 AM 24.35 75.83 0.955 8 124.3 6.68
8/7/2022 3:30:00 AM 24.32 75.776 0.957 8 176.5 6.64
8/7/2022 3:45:00 AM 24.29 75.722 0.959 8 298.1 6.67
8/7/2022 4:00:00 AM 24.27 75.686 0.962 8 149 6.67
8/7/2022 4:15:00 AM 24.24 75.632 0.964 7.99 150 6.64
8/7/2022 4:30:00 AM 24.21 75.578 0.966 8 144.1 6.65
8/7/2022 4:45:00 AM 24.18 75.524 0.969 8 507 6.63
8/7/2022 5:00:00 AM 24.15 75.47 0.971 8 156.8 6.66
8/7/2022 5:15:00 AM 24.11 75.398 0.974 7.99 149.9 6.57
8/7/2022 5:30:00 AM 24.08 75.344 0.976 7.99 153.8 6.61
8/7/2022 5:45:00 AM 24.05 75.29 0.979 7.99 156.6 6.64
8/7/2022 6:00:00 AM 24.02 75.236 0.981 7.99 189.6 6.61
8/7/2022 6:15:00 AM 23.99 75.182 0.984 7.99 204.3 6.65
8/7/2022 6:30:00 AM 23.97 75.146 0.987 7.99 172.3 6.66
8/7/2022 6:45:00 AM 23.94 75.092 0.99 7.99 149 6.69
8/7/2022 7:00:00 AM 23.93 75.074 0.993 7.99 134.8 6.7
8/7/2022 7:15:00 AM 23.92 75.056 0.996 7.98 132.4 6.72
8/7/2022 7:30:00 AM 23.91 75.038 0.999 7.98 140.9 6.73
8/7/2022 7:45:00 AM 23.91 75.038 1.002 7.97 157.5 6.77
8/7/2022 8:00:00 AM 23.9 75.02 1.005 7.97 202.8 6.71
8/7/2022 8:15:00 AM 23.9 75.02 1.008 7.97 201.2 6.81
8/7/2022 8:30:00 AM 23.9 75.02 1.011 7.97 193.3 6.8
8/7/2022 8:45:00 AM 23.91 75.038 1.013 7.97 155.4 6.82
8/7/2022 9:00:00 AM 23.93 75.074 1.017 7.97 161.9 6.95
8/7/2022 9:15:00 AM 23.96 75.128 1.019 7.98 138.3 7.07
8/7/2022 9:30:00 AM 24.01 75.218 1.022 7.99 173.4 7.2
8/7/2022 9:45:00 AM 24.07 75.326 1.024 7.98 244.4 7.2
8/7/2022 10:00:00 AM 24.14 75.452 1.026 7.99 264.9 7.31
8/7/2022 10:15:00 AM 24.22 75.596 1.029 8.01 234.9 7.48
8/7/2022 10:30:00 AM 24.28 75.704 1.032 8.02 146.6 7.53
8/7/2022 10:45:00 AM 24.51 76.118 1.033 8.02 184.3 7.56
8/7/2022 11:00:00 AM 24.61 76.298 1.036 8.05 255.5 7.58
8/7/2022 11:15:00 AM 24.81 76.658 1.037 8.04 233 7.68
8/7/2022 11:30:00 AM 24.95 76.91 1.039 8.06 209.9 7.76
8/7/2022 11:45:00 AM 25.16 77.288 1.04 8.07 142.5 7.9
8/7/2022 12:00:00 PM 25.32 77.576 1.041 8.09 210.8 7.99
8/7/2022 12:15:00 PM 25.52 77.936 1.043 8.11 204.9 8.11
8/7/2022 12:30:00 PM 25.71 78.278 1.044 8.12 116.7 8.18
8/7/2022 12:45:00 PM 25.77 78.386 1.045 8.14 173.3 8.24
8/7/2022 1:00:00 PM 25.95 78.71 1.045 8.16 142.2 8.33
8/7/2022 1:15:00 PM 26.07 78.926 1.045 8.18 125.8 8.33
8/7/2022 1:30:00 PM 26.21 79.17799 1.045 8.19 147.2 8.41
8/7/2022 1:45:00 PM 26.27 79.286 1.045 8.18 123.3 8.41
8/7/2022 2:00:00 PM 26.37 79.466 1.045 8.19 143.6 8.4
8/7/2022 2:15:00 PM 26.47 79.646 1.043 8.19 137.8 8.39
8/7/2022 2:30:00 PM 26.55 79.79 1.043 8.2 142.6 8.36
8/7/2022 2:45:00 PM 26.54 79.772 1.041 8.2 134.4 8.28
8/7/2022 3:00:00 PM 26.63 79.934 1.04 8.2 169.8 8.24
8/7/2022 3:15:00 PM 26.75 80.15 1.038 8.2 193.6 8.24
8/7/2022 3:30:00 PM 26.86 80.348 1.035 8.21 140.5 8.24
8/7/2022 3:45:00 PM 26.88 80.384 1.032 8.22 133.8 8.19
8/7/2022 4:00:00 PM 26.85 80.33 1.029 8.21 147.6 8.06
8/7/2022 4:15:00 PM 26.86 80.348 1.026 8.21 143.8 7.95
8/7/2022 4:30:00 PM 26.85 80.33 1.023 8.21 150.7 7.88
8/7/2022 4:45:00 PM 26.83 80.294 1.019 8.2 136.4 7.83
8/7/2022 5:00:00 PM 26.79 80.222 1.015 8.2 139 7.69
8/7/2022 5:15:00 PM 26.75 80.15 1.011 8.2 192 7.63
8/7/2022 5:30:00 PM 26.69 80.042 1.006 8.2 129.9 7.53
8/7/2022 5:45:00 PM 26.64 79.952 1.002 8.19 135.1 7.42
8/7/2022 6:00:00 PM 26.6 79.88 0.997 8.17 158.4 7.28
8/7/2022 6:15:00 PM 26.56 79.808 0.991 8.18 177.5 7.25
8/7/2022 6:30:00 PM 26.53 79.754 0.986 8.17 137.9 7.13
8/7/2022 6:45:00 PM 26.5 79.7 0.98 8.16 154.1 7.14
8/7/2022 7:00:00 PM 26.49 79.682 0.974 8.15 227.6 7.03
8/7/2022 7:15:00 PM 26.45 79.61 0.968 8.15 164.4 6.95
8/7/2022 7:30:00 PM 26.45 79.61 0.961 8.14 179.3 6.89
8/7/2022 7:45:00 PM 26.44 79.592 0.954 8.14 131 6.85
8/7/2022 8:00:00 PM 26.43 79.574 0.948 8.12 134 6.76
8/7/2022 8:15:00 PM 26.42 79.556 0.943 8.12 145 6.7
8/7/2022 8:30:00 PM 26.4 79.52 0.936 8.11 241.5 6.61
8/7/2022 8:45:00 PM 26.4 79.52 0.93 8.1 200.7 6.56
8/7/2022 9:00:00 PM 26.38 79.484 0.922 8.09 182.3 6.41
8/7/2022 9:15:00 PM 26.39 79.502 0.914 8.09 137.2 6.48
8/7/2022 9:30:00 PM 26.36 79.448 0.907 8.09 162.2 6.45
8/7/2022 9:45:00 PM 26.31 79.358 0.902 8.07 202.2 6.14
8/7/2022 10:00:00 PM 26.32 79.376 0.893 8.06 139.3 6.27
8/7/2022 10:15:00 PM 26.28 79.304 0.885 8.05 189.5 6.19
8/7/2022 10:30:00 PM 26.26 79.268 0.877 8.05 229.9 6.21
8/7/2022 10:45:00 PM 26.23 79.214 0.871 8.03 214.9 6.04
8/7/2022 11:00:00 PM 26.22 79.196 0.862 8.03 154.2 6.14
8/7/2022 11:15:00 PM 26.18 79.124 0.857 8.02 148.2 5.95
8/7/2022 11:30:00 PM 26.17 79.106 0.847 8.01 178 5.99
8/7/2022 11:45:00 PM 26.13 79.034 0.839 8.01 185.3 6.08
8/8/2022 12:00:00 AM 26.1 78.98 0.832 8 403.6 6.04
8/8/2022 12:15:00 AM 26.07 78.926 0.824 8 289.4 6.05
8/8/2022 12:30:00 AM 26.05 78.89 0.816 7.99 149.2 6.05
8/8/2022 12:45:00 AM 26.02 78.836 0.808 7.99 185.4 6.07
8/8/2022 1:00:00 AM 25.98 78.764 0.802 7.98 248 6.08
8/8/2022 1:15:00 AM 25.95 78.71 0.793 7.97 391.9 6.07
8/8/2022 1:30:00 AM 25.92 78.656 0.787 7.96 161.9 6.05
8/8/2022 1:45:00 AM 25.88 78.584 0.779 7.96 149.3 6.07
8/8/2022 2:00:00 AM 25.85 78.53 0.771 7.96 287 6.08
8/8/2022 2:15:00 AM 25.81 78.458 0.764 7.95 207.2 6.07
8/8/2022 2:30:00 AM 25.77 78.386 0.758 7.94 149.5 6.06
8/8/2022 2:45:00 AM 25.74 78.332 0.752 7.93 239.1 6.02
8/8/2022 3:00:00 AM 25.7 78.26 0.744 7.92 243.6 6.06
8/8/2022 3:15:00 AM 25.66 78.188 0.738 7.92 151.2 6.03
8/8/2022 3:30:00 AM 25.63 78.134 0.732 7.91 163.7 6
8/8/2022 3:45:00 AM 25.6 78.08 0.727 7.91 174.2 6.02
8/8/2022 4:00:00 AM 25.56 78.008 0.72 7.91 296.7 6.08
8/8/2022 4:15:00 AM 25.52 77.936 0.715 7.9 162.7 6.03
8/8/2022 4:30:00 AM 25.48 77.864 0.709 7.89 163.4 6.01
8/8/2022 4:45:00 AM 25.45 77.81 0.704 7.89 150.8 6.05
8/8/2022 5:00:00 AM 25.41 77.738 0.699 7.89 193 6.01
8/8/2022 5:15:00 AM 25.37 77.666 0.693 7.88 205.6 6.04
8/8/2022 5:30:00 AM 25.33 77.594 0.689 7.89 226.9 6.04
8/8/2022 5:45:00 AM 25.29 77.522 0.685 7.88 152.8 6.02
8/8/2022 6:00:00 AM 25.25 77.45 0.68 7.87 154.9 6.04
8/8/2022 6:15:00 AM 25.22 77.396 0.675 7.87 196.7 6.02
8/8/2022 6:30:00 AM 25.18 77.324 0.671 7.87 174.3 6.05
8/8/2022 6:45:00 AM 25.15 77.27 0.667 7.86 142 6.09
8/8/2022 7:00:00 AM 25.12 77.216 0.662 7.85 204.2 6.11
8/8/2022 7:15:00 AM 25.09 77.162 0.659 7.85 208.7 6.08
8/8/2022 7:30:00 AM 25.06 77.108 0.655 7.85 167.8 6.17
8/8/2022 7:45:00 AM 25.04 77.07201 0.651 7.84 150.8 6.13
8/8/2022 8:00:00 AM 25.03 77.054 0.647 7.83 185.4 6.15
8/8/2022 8:15:00 AM 25.01 77.018 0.644 7.84 191.1 6.14
8/8/2022 8:30:00 AM 25 77 0.64 7.83 171.2 6.21
8/8/2022 8:45:00 AM 24.98 76.964 0.637 7.83 203.2 6.15
8/8/2022 9:00:00 AM 24.98 76.964 0.634 7.8 226.6 6.22
8/8/2022 9:15:00 AM 24.98 76.964 0.631 7.8 170.8 6.32
8/8/2022 9:30:00 AM 24.98 76.964 0.628 7.8 184.7 6.32
8/8/2022 9:45:00 AM 25 77 0.626 7.8 310.6 6.33
8/8/2022 10:00:00 AM 25.03 77.054 0.623 7.81 144.7 6.36
8/8/2022 10:15:00 AM 25.09 77.162 0.62 7.81 262 6.51
8/8/2022 10:30:00 AM 25.19 77.342 0.618 7.82 151.3 6.65
8/8/2022 10:45:00 AM 25.49 77.882 0.615 7.81 199.3 6.67
8/8/2022 11:00:00 AM 25.6 78.08 0.614 7.84 252.9 6.84
8/8/2022 11:15:00 AM 25.71 78.278 0.611 7.89 234 7.08
8/8/2022 11:30:00 AM 25.71 78.278 0.61 7.89 174.4 6.87
8/8/2022 11:45:00 AM 25.97 78.746 0.608 7.9 145.1 6.94
8/8/2022 12:00:00 PM 26.11 78.998 0.607 7.92 154.1 7.17
8/8/2022 12:15:00 PM 26.36 79.448 0.604 7.94 270.1 7.23
8/8/2022 12:30:00 PM 26.54 79.772 0.603 7.96 228.8 7.51
8/8/2022 12:45:00 PM 26.75 80.15 0.601 7.99 144.9 7.43
8/8/2022 1:00:00 PM 26.83 80.294 0.6 8.02 233 7.51
8/8/2022 1:15:00 PM 27.03 80.654 0.598 8.03 196.8 7.76
8/8/2022 1:30:00 PM 27.11 80.798 0.597 8.03 162.5 7.68
8/8/2022 1:45:00 PM 27.18 80.924 0.596 8.04 141.7 7.72
8/8/2022 2:00:00 PM 27.26 81.068 0.594 8.04 252.8 7.73
8/8/2022 2:15:00 PM 27.29 81.122 0.593 8.04 302.4 7.76
8/8/2022 2:30:00 PM 27.31 81.158 0.593 8.04 137.3 7.61
8/8/2022 2:45:00 PM 27.49 81.482 0.591 8.05 159.3 7.69
8/8/2022 3:00:00 PM 27.51 81.518 0.591 8.06 245 7.83
8/8/2022 3:15:00 PM 27.66 81.788 0.59 8.07 175.8 7.75
8/8/2022 3:30:00 PM 27.74 81.932 0.589 8.08 139.5 7.79
8/8/2022 3:45:00 PM 27.69 81.842 0.59 8.08 154.2 7.61
8/8/2022 4:00:00 PM 27.73 81.914 0.589 8.08 176.4 7.57
8/8/2022 4:15:00 PM 27.71 81.878 0.589 8.08 267.4 7.26
8/8/2022 4:30:00 PM 27.7 81.86 0.589 8.06 154.2 7.27
8/8/2022 4:45:00 PM 27.67 81.806 0.589 8.05 245.1 7.29
8/8/2022 5:00:00 PM 27.65 81.77 0.588 8.07 145.8 7.17
8/8/2022 5:15:00 PM 27.59 81.662 0.589 8.06 158.1 6.87
8/8/2022 5:30:00 PM 27.58 81.644 0.588 8.06 692 7.04
8/8/2022 5:45:00 PM 27.52 81.536 0.588 8.06 335.6 6.87
8/8/2022 6:00:00 PM 27.48 81.464 0.588 8.06 439 6.93
8/8/2022 6:15:00 PM 27.44 81.392 0.588 8.05 341.5 6.7
8/8/2022 6:30:00 PM 27.38 81.284 0.588 8.04 163.9 6.69
8/8/2022 6:45:00 PM 27.34 81.212 0.588 8.05 231.5 6.59
8/8/2022 7:00:00 PM 27.29 81.122 0.588 8.04 202.8 6.6
8/8/2022 7:15:00 PM 27.23 81.014 0.589 8.03 217.2 6.46
8/8/2022 7:30:00 PM 27.21 80.978 0.589 8.03 152.4 6.37
8/8/2022 7:45:00 PM 27.15 80.87 0.59 8.01 234.7 6.19
8/8/2022 8:00:00 PM 27.14 80.852 0.59 8.01 262.3 6.31
8/8/2022 8:15:00 PM 27.09 80.762 0.591 8.01 208.2 6.17
8/8/2022 8:30:00 PM 27.09 80.762 0.591 8 297 6.08
8/8/2022 8:45:00 PM 27.09 80.762 0.591 8 162.1 6.09
8/8/2022 9:00:00 PM 27.05 80.69 0.592 7.99 170.1 6.1
8/8/2022 9:15:00 PM 27.04 80.672 0.592 7.99 183.1 6.05
8/8/2022 9:30:00 PM 27.01 80.618 0.593 7.98 287.5 5.98
8/8/2022 9:45:00 PM 26.99 80.582 0.594 7.96 192.8 5.85
8/8/2022 10:00:00 PM 26.99 80.582 0.595 7.97 173.7 5.91
8/8/2022 10:15:00 PM 26.98 80.564 0.595 7.94 381.1 5.8
8/8/2022 10:30:00 PM 26.95 80.51 0.596 7.94 435.5 5.79
8/8/2022 10:45:00 PM 26.9 80.42 0.597 7.95 198.1 5.82
8/8/2022 11:00:00 PM 26.87 80.366 0.598 7.94 164.7 5.66
8/8/2022 11:15:00 PM 26.85 80.33 0.599 7.94 182.7 5.66
8/8/2022 11:30:00 PM 26.82 80.276 0.6 7.93 584.2 5.55
8/8/2022 11:45:00 PM 26.79 80.222 0.601 7.94 167.9 5.72
8/9/2022 12:00:00 AM 26.74 80.132 0.602 7.93 457.7 5.61
8/9/2022 12:15:00 AM 26.72 80.096 0.603 7.93 168.1 5.52
8/9/2022 12:30:00 AM 26.69 80.042 0.604 7.93 250.4 5.67
8/9/2022 12:45:00 AM 26.64 79.952 0.605 7.93 176.2 5.63
8/9/2022 1:00:00 AM 26.59 79.862 0.607 7.92 194 5.53
8/9/2022 1:15:00 AM 26.56 79.808 0.608 7.93 176.5 5.66
8/9/2022 1:30:00 AM 26.51 79.718 0.609 7.92 285 5.6
8/9/2022 1:45:00 AM 26.46 79.628 0.61 7.91 196 5.48
8/9/2022 2:00:00 AM 26.43 79.574 0.611 7.92 217.1 5.6
8/9/2022 2:15:00 AM 26.38 79.484 0.613 7.91 322.8 5.71
8/9/2022 2:30:00 AM 26.34 79.412 0.614 7.91 174.9 5.61
8/9/2022 2:45:00 AM 26.29 79.32201 0.615 7.9 182.5 5.49
8/9/2022 3:00:00 AM 26.25 79.25 0.616 7.89 157.7 5.49
8/9/2022 3:15:00 AM 26.21 79.17799 0.618 7.9 165.4 5.55
8/9/2022 3:30:00 AM 26.16 79.088 0.619 7.9 187.2 5.58
8/9/2022 3:45:00 AM 26.12 79.016 0.62 7.9 189.9 5.59
8/9/2022 4:00:00 AM 26.08 78.944 0.622 7.89 200.3 5.52
8/9/2022 4:15:00 AM 26.04 78.872 0.623 7.89 828.4 5.54
8/9/2022 4:30:00 AM 26.01 78.818 0.624 7.87 196.6 5.52
8/9/2022 4:45:00 AM 25.98 78.764 0.626 7.88 203.9 5.6
8/9/2022 5:00:00 AM 25.93 78.674 0.627 7.87 214.5 5.58
8/9/2022 5:15:00 AM 25.88 78.584 0.628 7.85 630.5 5.47
8/9/2022 5:30:00 AM 25.83 78.494 0.63 7.87 287.3 5.35
8/9/2022 5:45:00 AM 25.79 78.422 0.631 7.87 199.2 5.65
8/9/2022 6:00:00 AM 25.74 78.332 0.632 7.86 177.7 5.49
8/9/2022 6:15:00 AM 25.7 78.26 0.634 7.85 252 5.5
8/9/2022 6:30:00 AM 25.66 78.188 0.635 7.86 236.2 5.52
8/9/2022 6:45:00 AM 25.62 78.116 0.636 7.85 281.1 5.62
8/9/2022 7:00:00 AM 25.58 78.044 0.638 7.86 173.4 5.65
8/9/2022 7:15:00 AM 25.55 77.99 0.639 7.85 173.8 5.64
8/9/2022 7:30:00 AM 25.52 77.936 0.64 7.85 189.4 5.6
8/9/2022 7:45:00 AM 25.5 77.9 0.641 7.83 337.3 5.65
8/9/2022 8:00:00 AM 25.48 77.864 0.642 7.83 211 5.75
8/9/2022 8:15:00 AM 25.48 77.864 0.643 7.82 260.9 5.84
8/9/2022 8:30:00 AM 25.47 77.846 0.644 7.84 842.7 5.96
8/9/2022 8:45:00 AM 25.45 77.81 0.645 7.84 192 5.69
8/9/2022 9:00:00 AM 25.45 77.81 0.647 7.83 190.4 5.87
8/9/2022 9:15:00 AM 25.46 77.828 0.648 7.82 212.2 5.69
8/9/2022 9:30:00 AM 25.46 77.828 0.649 7.81 243.1 5.78
8/9/2022 9:45:00 AM 25.47 77.846 0.65 7.81 294.7 5.78
8/9/2022 10:00:00 AM 25.5 77.9 0.652 7.81 288.1 5.81
8/9/2022 10:15:00 AM 25.54 77.972 0.653 7.82 189.9 5.85
8/9/2022 10:30:00 AM 25.7 78.26 0.654 7.82 391.3 5.97
8/9/2022 10:45:00 AM 25.97 78.746 0.654 7.82 189.7 6.11
8/9/2022 11:00:00 AM 26.13 79.034 0.656 7.87 226.4 6.45
8/9/2022 11:15:00 AM 26.46 79.628 0.657 7.92 219 6.62
8/9/2022 11:30:00 AM 26.46 79.628 0.659 7.94 465.4 6.71
8/9/2022 11:45:00 AM 26.52 79.736 0.66 7.96 323.4 6.87
8/9/2022 12:00:00 PM 26.56 79.808 0.661 7.97 207.6 6.92
8/9/2022 12:15:00 PM 26.63 79.934 0.663 7.99 174.6 6.92
8/9/2022 12:30:00 PM 26.81 80.258 0.664 7.99 174 7.13
8/9/2022 12:45:00 PM 27.05 80.69 0.666 8.03 186.9 7.45
8/9/2022 1:00:00 PM 27.15 80.87 0.666 8.05 200.8 7.43
8/9/2022 1:15:00 PM 27.31 81.158 0.668 8.06 191.2 7.5
8/9/2022 1:30:00 PM 27.48 81.464 0.669 8.06 248.7 7.48
8/9/2022 1:45:00 PM 27.67 81.806 0.67 8.07 291 7.59
8/9/2022 2:00:00 PM 27.7 81.86 0.673 8.08 200.2 7.61
8/9/2022 2:15:00 PM 27.76 81.968 0.674 8.07 478 7.49
8/9/2022 2:30:00 PM 27.87 82.166 0.676 8.07 668.7 7.44
8/9/2022 2:45:00 PM 27.91 82.238 0.677 8.08 248.2 7.47
8/9/2022 3:00:00 PM 27.96 82.328 0.679 8.09 271.9 7.6
8/9/2022 3:15:00 PM 27.99 82.382 0.68 8.09 201.3 7.46
8/9/2022 3:30:00 PM 28.06 82.508 0.682 8.09 200.7 7.4
8/9/2022 3:45:00 PM 28.05 82.49 0.683 8.09 879.5 7.39
8/9/2022 4:00:00 PM 28.01 82.418 0.685 8.1 221.8 7.38
8/9/2022 4:15:00 PM 27.86 82.148 0.686 8.11 488.9 7.2
8/9/2022 4:30:00 PM 27.68 81.824 0.683 8.1 191.6 6.89
8/9/2022 4:45:00 PM 0 32 0 7 0 0
8/9/2022 5:00:00 PM 0 32 0 7 0 0
8/9/2022 5:15:00 PM 0 32 0 7 0 0
8/9/2022 5:30:00 PM 0 32 0 7 0 0
8/9/2022 5:45:00 PM 0 32 0 7 0 0
8/9/2022 6:00:00 PM 0 32 0 7 0 0
8/9/2022 6:15:00 PM 0 32 0 7 0 0
8/9/2022 6:30:00 PM 0 32 0 7 0 0
8/9/2022 6:45:00 PM 0 32 0 7 0 0
8/9/2022 7:00:00 PM 0 32 0 7 0 0
8/9/2022 7:15:00 PM 0 32 0 7 0 0
8/9/2022 7:30:00 PM 0 32 0 7 0 0
8/9/2022 7:45:00 PM 0 32 0 7 0 0
8/9/2022 8:00:00 PM 0 32 0 7 0 0
8/9/2022 8:15:00 PM 0 32 0 7 0 0
8/9/2022 8:30:00 PM 0 32 0 7 0 0
8/9/2022 8:45:00 PM 0 32 0 7 0 0
8/9/2022 9:00:00 PM 0 32 0 7 0 0
8/9/2022 9:15:00 PM 0 32 0 7 0 0
8/9/2022 9:30:00 PM 0 32 0 7 0 0
8/9/2022 9:45:00 PM 0 32 0 7 0 0
8/9/2022 10:00:00 PM 0 32 0 7 0 0
8/9/2022 10:15:00 PM 0 32 0 7 0 0
8/9/2022 10:30:00 PM 0 32 0 7 0 0
8/9/2022 10:45:00 PM 0 32 0 7 0 0
8/9/2022 11:00:00 PM 0 32 0 7 0 0
8/9/2022 11:15:00 PM 0 32 0 7 0 0
8/9/2022 11:30:00 PM 0 32 0 7 0 0
8/9/2022 11:45:00 PM 0 32 0 7 0 0
8/10/2022 12:00:00 AM 0 32 0 7 0 0
8/10/2022 12:15:00 AM 0 32 0 7 0 0
8/10/2022 12:30:00 AM 0 32 0 7 0 0
8/10/2022 12:45:00 AM 0 32 0 7 0 0
8/10/2022 1:00:00 AM 0 32 0 7 0 0
8/10/2022 1:15:00 AM 0 32 0 7 0 0
8/10/2022 1:30:00 AM 0 32 0 7 0 0
8/10/2022 1:45:00 AM 0 32 0 7 0 0
8/10/2022 2:00:00 AM 0 32 0 7 0 0
8/10/2022 2:15:00 AM 0 32 0 7 0 0
8/10/2022 2:30:00 AM 0 32 0 7 0 0
8/10/2022 2:45:00 AM 0 32 0 7 0 0
8/10/2022 3:00:00 AM 0 32 0 7 0 0
8/10/2022 3:15:00 AM 0 32 0 7 0 0
8/10/2022 3:30:00 AM 0 32 0 7 0 0
8/10/2022 3:45:00 AM 0 32 0 7 0 0
8/10/2022 4:00:00 AM 0 32 0 7 0 0
8/10/2022 4:15:00 AM 0 32 0 7 0 0
8/10/2022 4:30:00 AM 0 32 0 7 0 0
8/10/2022 4:45:00 AM 0 32 0 7 0 0
8/10/2022 5:00:00 AM 0 32 0 7 0 0
8/10/2022 5:15:00 AM 0 32 0 7 0 0
8/10/2022 5:30:00 AM 0 32 0 7 0 0
8/10/2022 5:45:00 AM 0 32 0 7 0 0
8/10/2022 6:00:00 AM 0 32 0 7 0 0
8/10/2022 6:15:00 AM 0 32 0 7 0 0
8/10/2022 6:30:00 AM 0 32 0 7 0 0
8/10/2022 6:45:00 AM 0 32 0 7 0 0
8/10/2022 7:00:00 AM 0 32 0 7 0 0
8/10/2022 7:15:00 AM 0 32 0 7 0 0
8/10/2022 7:30:00 AM 0 32 0 7 0 0
8/10/2022 7:45:00 AM 0 32 0 7 0 0
8/10/2022 8:00:00 AM 0 32 0 7 0 0
8/10/2022 8:15:00 AM 0 32 0 7 0 0
8/10/2022 8:30:00 AM 0 32 0 7 0 0
8/10/2022 8:45:00 AM 0 32 0 7 0 0
8/10/2022 9:00:00 AM 0 32 0 7 0 0
8/10/2022 9:15:00 AM 0 32 0 7 0 0
8/10/2022 9:30:00 AM 0 32 0 7 0 0
8/10/2022 9:45:00 AM 0 32 0 7 0 0
8/10/2022 10:00:00 AM 0 32 0 7 0 0
8/10/2022 10:15:00 AM 0 32 0 7 0 0
8/10/2022 10:30:00 AM 0 32 0 7 0 0
8/10/2022 10:45:00 AM 0 32 0 7 0 0
8/10/2022 11:00:00 AM 0 32 0 7 0 0
8/10/2022 11:15:00 AM 0 32 0 7 0 0
8/10/2022 11:30:00 AM 0 32 0 7 0 0
8/10/2022 11:45:00 AM 0 32 0 7 0 0
8/10/2022 12:00:00 PM 0 32 0 7 0 0
8/10/2022 12:15:00 PM 0 32 0 7 0 0
8/10/2022 12:30:00 PM 0 32 0 7 0 0
8/10/2022 12:45:00 PM 0 32 0 7 0 0
8/10/2022 1:00:00 PM 0 32 0 7 0 0
8/10/2022 1:15:00 PM 0 32 0 7 0 0
8/10/2022 1:30:00 PM 0 32 0 7 0 0
8/10/2022 1:45:00 PM 0 32 0 7 0 0
8/10/2022 2:00:00 PM 0 32 0 7 0 0
8/10/2022 2:15:00 PM 0 32 0 7 0 0
8/10/2022 2:30:00 PM 0 32 0 7 0 0
8/10/2022 2:45:00 PM 0 32 0 7 0 0
8/10/2022 3:00:00 PM 0 32 0 7 0 0
8/10/2022 3:15:00 PM 0 32 0 7 0 0
8/10/2022 3:30:00 PM 0 32 0 7 0 0
8/10/2022 3:45:00 PM 0 32 0 7 0 0
8/10/2022 4:00:00 PM 0 32 0 7 0 0
8/10/2022 4:15:00 PM 0 32 0 7 0 0
8/10/2022 4:30:00 PM 0 32 0 7 0 0
8/10/2022 4:45:00 PM 0 32 0 7 0 0
8/10/2022 5:00:00 PM 0 32 0 7 0 0
8/10/2022 5:15:00 PM 0 32 0 7 0 0
8/10/2022 5:30:00 PM 0 32 0 7 0 0
8/10/2022 5:45:00 PM 0 32 0 7 0 0
8/10/2022 6:00:00 PM 0 32 0 7 0 0
8/10/2022 6:15:00 PM 0 32 0 7 0 0
8/10/2022 6:30:00 PM 0 32 0 7 0 0
8/10/2022 6:45:00 PM 0 32 0 7 0 0
8/10/2022 7:00:00 PM 0 32 0 7 0 0
8/10/2022 7:15:00 PM 0 32 0 7 0 0
8/10/2022 7:30:00 PM 0 32 0 7 0 0
8/10/2022 7:45:00 PM 0 32 0 7 0 0
8/10/2022 8:00:00 PM 0 32 0 7 0 0
8/10/2022 8:15:00 PM 0 32 0 7 0 0
8/10/2022 8:30:00 PM 0 32 0 7 0 0
8/10/2022 8:45:00 PM 0 32 0 7 0 0
8/10/2022 9:00:00 PM 0 32 0 7 0 0
8/10/2022 9:15:00 PM 0 32 0 7 0 0
8/10/2022 9:30:00 PM 0 32 0 7 0 0
8/10/2022 9:45:00 PM 0 32 0 7 0 0
8/10/2022 10:00:00 PM 0 32 0 7 0 0
8/10/2022 10:15:00 PM 0 32 0 7 0 0
8/10/2022 10:30:00 PM 0 32 0 7 0 0
8/10/2022 10:45:00 PM 0 32 0 7 0 0
8/10/2022 11:00:00 PM 0 32 0 7 0 0
8/10/2022 11:15:00 PM 0 32 0 7 0 0
8/10/2022 11:30:00 PM 0 32 0 7 0 0
8/10/2022 11:45:00 PM 0 32 0 7 0 0
8/11/2022 12:00:00 AM 0 32 0 7 0 0
8/11/2022 12:15:00 AM 0 32 0 7 0 0
8/11/2022 12:30:00 AM 0 32 0 7 0 0
8/11/2022 12:45:00 AM 0 32 0 7 0 0
8/11/2022 1:00:00 AM 0 32 0 7 0 0
8/11/2022 1:15:00 AM 0 32 0 7 0 0
8/11/2022 1:30:00 AM 0 32 0 7 0 0
8/11/2022 1:45:00 AM 0 32 0 7 0 0
8/11/2022 2:00:00 AM 0 32 0 7 0 0
8/11/2022 2:15:00 AM 0 32 0 7 0 0
8/11/2022 2:30:00 AM 0 32 0 7 0 0
8/11/2022 2:45:00 AM 0 32 0 7 0 0
8/11/2022 3:00:00 AM 0 32 0 7 0 0
8/11/2022 3:15:00 AM 0 32 0 7 0 0
8/11/2022 3:30:00 AM 0 32 0 7 0 0
8/11/2022 3:45:00 AM 0 32 0 7 0 0
8/11/2022 4:00:00 AM 0 32 0 7 0 0
8/11/2022 4:15:00 AM 0 32 0 7 0 0
8/11/2022 4:30:00 AM 0 32 0 7 0 0
8/11/2022 4:45:00 AM 0 32 0 7 0 0
8/11/2022 5:00:00 AM 0 32 0 7 0 0
8/11/2022 5:15:00 AM 0 32 0 7 0 0
8/11/2022 5:30:00 AM 0 32 0 7 0 0
8/11/2022 5:45:00 AM 0 32 0 7 0 0
8/11/2022 6:00:00 AM 0 32 0 7 0 0
8/11/2022 6:15:00 AM 0 32 0 7 0 0
8/11/2022 6:30:00 AM 0 32 0 7 0 0
8/11/2022 6:45:00 AM 0 32 0 7 0 0
8/11/2022 7:00:00 AM 0 32 0 7 0 0
8/11/2022 7:15:00 AM 0 32 0 7 0 0
8/11/2022 7:30:00 AM 0 32 0 7 0 0
8/11/2022 7:45:00 AM 0 32 0 7 0 0
8/11/2022 8:00:00 AM 0 32 0 7 0 0
8/11/2022 8:15:00 AM 0 32 0 7 0 0
8/11/2022 8:30:00 AM 0 32 0 7 0 0
8/11/2022 8:45:00 AM 0 32 0 7 0 0
8/11/2022 9:00:00 AM 0 32 0 7 0 0
8/11/2022 9:15:00 AM 0 32 0 7 0 0
8/11/2022 9:30:00 AM 0 32 0 7 0 0
8/11/2022 9:45:00 AM 0 32 0 7 0 0
8/11/2022 10:00:00 AM 0 32 0 7 0 0
8/11/2022 10:15:00 AM 0 32 0 7 0 0
8/11/2022 10:30:00 AM 0 32 0 7 0 0
8/11/2022 10:45:00 AM 0 32 0 7 0 0
8/11/2022 11:00:00 AM 0 32 0 7 0 0
8/11/2022 11:15:00 AM 0 32 0 7 0 0
8/11/2022 11:30:00 AM 0 32 0 7 0 0
8/11/2022 11:45:00 AM 0 32 0 7 0 0
8/11/2022 12:00:00 PM 0 32 0 7 0 0
8/11/2022 12:15:00 PM 0 32 0 7 0 0
8/11/2022 12:30:00 PM 0 32 0 7 0 0
8/11/2022 12:45:00 PM 0 32 0 7 0 0
8/11/2022 1:00:00 PM 0 32 0 7 0 0
8/11/2022 1:15:00 PM 0 32 0 7 0 0
8/11/2022 1:30:00 PM 0 32 0 7 0 0
8/11/2022 1:45:00 PM 0 32 0 7 0 0
8/11/2022 2:00:00 PM 0 32 0 7 0 0
8/11/2022 2:15:00 PM 0 32 0 7 0 0
8/11/2022 2:30:00 PM 0 32 0 7 0 0
8/11/2022 2:45:00 PM 0 32 0 7 0 0
8/11/2022 3:00:00 PM 0 32 0 7 0 0
8/11/2022 3:15:00 PM 0 32 0 7 0 0
8/11/2022 3:30:00 PM 0 32 0 7 0 0
8/11/2022 3:45:00 PM 0 32 0 7 0 0
8/11/2022 4:00:00 PM 0 32 0 7 0 0
8/11/2022 4:15:00 PM 0 32 0 7 0 0
8/11/2022 4:30:00 PM 0 32 0 7 0 0
8/11/2022 4:45:00 PM 0 32 0 7 0 0
8/11/2022 5:00:00 PM 0 32 0 7 0 0
8/11/2022 5:15:00 PM 0 32 0 7 0 0
8/11/2022 5:30:00 PM 0 32 0 7 0 0
8/11/2022 5:45:00 PM 0 32 0 7 0 0
8/11/2022 6:00:00 PM 0 32 0 7 0 0
8/11/2022 6:15:00 PM 0 32 0 7 0 0
8/11/2022 6:30:00 PM 0 32 0 7 0 0
8/11/2022 6:45:00 PM 0 32 0 7 0 0
8/11/2022 7:00:00 PM 0 32 0 7 0 0
8/11/2022 7:15:00 PM 0 32 0 7 0 0
8/11/2022 7:30:00 PM 0 32 0 7 0 0
8/11/2022 7:45:00 PM 0 32 0 7 0 0
8/11/2022 8:00:00 PM 0 32 0 7 0 0
8/11/2022 8:15:00 PM 0 32 0 7 0 0
8/11/2022 8:30:00 PM 0 32 0 7 0 0
8/11/2022 8:45:00 PM 0 32 0 7 0 0
8/11/2022 9:00:00 PM 0 32 0 7 0 0
8/11/2022 9:15:00 PM 0 32 0 7 0 0
8/11/2022 9:30:00 PM 0 32 0 7 0 0
8/11/2022 9:45:00 PM 0 32 0 7 0 0
8/11/2022 10:00:00 PM 0 32 0 7 0 0
8/11/2022 10:15:00 PM 0 32 0 7 0 0
8/11/2022 10:30:00 PM 0 32 0 7 0 0
8/11/2022 10:45:00 PM 0 32 0 7 0 0
8/11/2022 11:00:00 PM 0 32 0 7 0 0
8/11/2022 11:15:00 PM 0 32 0 7 0 0
8/11/2022 11:30:00 PM 0 32 0 7 0 0
8/11/2022 11:45:00 PM 0 32 0 7 0 0
8/12/2022 12:00:00 AM 0 32 0 7 0 0
8/12/2022 12:15:00 AM 0 32 0 7 0 0
8/12/2022 12:30:00 AM 0 32 0 7 0 0
8/12/2022 12:45:00 AM 0 32 0 7 0 0
8/12/2022 1:00:00 AM 0 32 0 7 0 0
8/12/2022 1:15:00 AM 0 32 0 7 0 0
8/12/2022 1:30:00 AM 0 32 0 7 0 0
8/12/2022 1:45:00 AM 0 32 0 7 0 0
8/12/2022 2:00:00 AM 0 32 0 7 0 0
8/12/2022 2:15:00 AM 0 32 0 7 0 0
8/12/2022 2:30:00 AM 0 32 0 7 0 0
8/12/2022 2:45:00 AM 0 32 0 7 0 0
8/12/2022 3:00:00 AM 0 32 0 7 0 0
8/12/2022 3:15:00 AM 0 32 0 7 0 0
8/12/2022 3:30:00 AM 0 32 0 7 0 0
8/12/2022 3:45:00 AM 0 32 0 7 0 0
8/12/2022 4:00:00 AM 0 32 0 7 0 0
8/12/2022 4:15:00 AM 0 32 0 7 0 0
8/12/2022 4:30:00 AM 0 32 0 7 0 0
8/12/2022 4:45:00 AM 0 32 0 7 0 0
8/12/2022 5:00:00 AM 0 32 0 7 0 0
8/12/2022 5:15:00 AM 0 32 0 7 0 0
8/12/2022 5:30:00 AM 0 32 0 7 0 0
8/12/2022 5:45:00 AM 0 32 0 7 0 0
8/12/2022 6:00:00 AM 0 32 0 7 0 0
8/12/2022 6:15:00 AM 0 32 0 7 0 0
8/12/2022 6:30:00 AM 0 32 0 7 0 0
8/12/2022 6:45:00 AM 0 32 0 7 0 0
8/12/2022 7:00:00 AM 0 32 0 7 0 0
8/12/2022 7:15:00 AM 0 32 0 7 0 0
8/12/2022 7:30:00 AM 0 32 0 7 0 0
8/12/2022 7:45:00 AM 0 32 0 7 0 0
8/12/2022 8:00:00 AM 0 32 0 7 0 0
8/12/2022 8:15:00 AM 0 32 0 7 0 0
8/12/2022 8:30:00 AM 0 32 0 7 0 0
8/12/2022 8:45:00 AM 0 32 0 7 0 0
8/12/2022 9:00:00 AM 0 32 0 7 0 0
8/12/2022 9:15:00 AM 0 32 0 7 0 0
8/12/2022 9:30:00 AM 0 32 0 7 0 0
8/12/2022 9:45:00 AM 0 32 0 7 0 0
8/12/2022 10:00:00 AM 0 32 0 7 0 0
8/12/2022 10:15:00 AM 0 32 0 7 0 0
8/12/2022 10:30:00 AM 0 32 0 7 0 0
8/12/2022 10:45:00 AM 0 32 0 7 0 0
8/12/2022 11:00:00 AM 0 32 0 7 0 0
8/12/2022 11:15:00 AM 0 32 0 7 0 0
8/12/2022 11:30:00 AM 0 32 0 7 0 0
8/12/2022 11:45:00 AM 0 32 0 7 0 0
8/12/2022 12:00:00 PM 0 32 0 7 0 0
8/12/2022 12:15:00 PM 0 32 0 7 0 0
8/12/2022 12:30:00 PM 0 32 0 7 0 0
8/12/2022 12:45:00 PM 0 32 0 7 0 0
8/12/2022 1:00:00 PM 0 32 0 7 0 0
8/12/2022 1:15:00 PM 0 32 0 7 0 0
8/12/2022 1:30:00 PM 0 32 0 7 0 0
8/12/2022 1:45:00 PM 0 32 0 7 0 0
8/12/2022 2:00:00 PM 0 32 0 7 0 0
8/12/2022 2:15:00 PM 0 32 0 7 0 0
8/12/2022 2:30:00 PM 0 32 0 7 0 0
8/12/2022 2:45:00 PM 0 32 0 7 0 0
8/12/2022 3:00:00 PM 0 32 0 7 0 0
8/12/2022 3:15:00 PM 0 32 0 7 0 0
8/12/2022 3:30:00 PM 0 32 0 7 0 0
8/12/2022 3:45:00 PM 0 32 0 7 0 0
8/12/2022 4:00:00 PM 0 32 0 7 0 0
8/12/2022 4:15:00 PM 0 32 0 7 0 0
8/12/2022 4:30:00 PM 0 32 0 7 0 0
8/12/2022 4:45:00 PM 0 32 0 7 0 0
8/12/2022 5:00:00 PM 0 32 0 7 0 0
8/12/2022 5:15:00 PM 0 32 0 7 0 0
8/12/2022 5:30:00 PM 0 32 0 7 0 0
8/12/2022 5:45:00 PM 0 32 0 7 0 0
8/12/2022 6:00:00 PM 0 32 0 7 0 0
8/12/2022 6:15:00 PM 0 32 0 7 0 0
8/12/2022 6:30:00 PM 0 32 0 7 0 0
8/12/2022 6:45:00 PM 0 32 0 7 0 0
8/12/2022 7:00:00 PM 0 32 0 7 0 0
8/12/2022 7:15:00 PM 0 32 0 7 0 0
8/12/2022 7:30:00 PM 0 32 0 7 0 0
8/12/2022 7:45:00 PM 0 32 0 7 0 0
8/12/2022 8:00:00 PM 0 32 0 7 0 0
8/12/2022 8:15:00 PM 0 32 0 7 0 0
8/12/2022 8:30:00 PM 0 32 0 7 0 0
8/12/2022 8:45:00 PM 0 32 0 7 0 0
8/12/2022 9:00:00 PM 0 32 0 7 0 0
8/12/2022 9:15:00 PM 0 32 0 7 0 0
8/12/2022 9:30:00 PM 0 32 0 7 0 0
8/12/2022 9:45:00 PM 0 32 0 7 0 0
8/12/2022 10:00:00 PM 0 32 0 7 0 0
8/12/2022 10:15:00 PM 0 32 0 7 0 0
8/12/2022 10:30:00 PM 0 32 0 7 0 0
8/12/2022 10:45:00 PM 0 32 0 7 0 0
8/12/2022 11:00:00 PM 0 32 0 7 0 0
8/12/2022 11:15:00 PM 0 32 0 7 0 0
8/12/2022 11:30:00 PM 0 32 0 7 0 0
8/12/2022 11:45:00 PM 0 32 0 7 0 0
8/13/2022 12:00:00 AM 0 32 0 7 0 0
8/13/2022 12:15:00 AM 0 32 0 7 0 0
8/13/2022 12:30:00 AM 0 32 0 7 0 0
8/13/2022 12:45:00 AM 0 32 0 7 0 0
8/13/2022 1:00:00 AM 0 32 0 7 0 0
8/13/2022 1:15:00 AM 0 32 0 7 0 0
8/13/2022 1:30:00 AM 0 32 0 7 0 0
8/13/2022 1:45:00 AM 0 32 0 7 0 0
8/13/2022 2:00:00 AM 0 32 0 7 0 0
8/13/2022 2:15:00 AM 0 32 0 7 0 0
8/13/2022 2:30:00 AM 0 32 0 7 0 0
8/13/2022 2:45:00 AM 0 32 0 7 0 0
8/13/2022 3:00:00 AM 0 32 0 7 0 0
8/13/2022 3:15:00 AM 0 32 0 7 0 0
8/13/2022 3:30:00 AM 0 32 0 7 0 0
8/13/2022 3:45:00 AM 0 32 0 7 0 0
8/13/2022 4:00:00 AM 0 32 0 7 0 0
8/13/2022 4:15:00 AM 0 32 0 7 0 0
8/13/2022 4:30:00 AM 0 32 0 7 0 0
8/13/2022 4:45:00 AM 0 32 0 7 0 0
8/13/2022 5:00:00 AM 0 32 0 7 0 0
8/13/2022 5:15:00 AM 0 32 0 7 0 0
8/13/2022 5:30:00 AM 0 32 0 7 0 0
8/13/2022 5:45:00 AM 0 32 0 7 0 0
8/13/2022 6:00:00 AM 0 32 0 7 0 0
8/13/2022 6:15:00 AM 0 32 0 7 0 0
8/13/2022 6:30:00 AM 0 32 0 7 0 0
8/13/2022 6:45:00 AM 0 32 0 7 0 0
8/13/2022 7:00:00 AM 0 32 0 7 0 0
8/13/2022 7:15:00 AM 0 32 0 7 0 0
8/13/2022 7:30:00 AM 0 32 0 7 0 0
8/13/2022 7:45:00 AM 0 32 0 7 0 0
8/13/2022 8:00:00 AM 0 32 0 7 0 0
8/13/2022 8:15:00 AM 0 32 0 7 0 0
8/13/2022 8:30:00 AM 0 32 0 7 0 0
8/13/2022 8:45:00 AM 0 32 0 7 0 0
8/13/2022 9:00:00 AM 0 32 0 7 0 0
8/13/2022 9:15:00 AM 0 32 0 7 0 0
8/13/2022 9:30:00 AM 0 32 0 7 0 0
8/13/2022 9:45:00 AM 0 32 0 7 0 0
8/13/2022 10:00:00 AM 0 32 0 7 0 0
8/13/2022 10:15:00 AM 0 32 0 7 0 0
8/13/2022 10:30:00 AM 0 32 0 7 0 0
8/13/2022 10:45:00 AM 0 32 0 7 0 0
8/13/2022 11:00:00 AM 0 32 0 7 0 0
8/13/2022 11:15:00 AM 0 32 0 7 0 0
8/13/2022 11:30:00 AM 0 32 0 7 0 0
8/13/2022 11:45:00 AM 0 32 0 7 0 0
8/13/2022 12:00:00 PM 0 32 0 7 0 0
8/13/2022 12:15:00 PM 0 32 0 7 0 0
8/13/2022 12:30:00 PM 0 32 0 7 0 0
8/13/2022 12:45:00 PM 0 32 0 7 0 0
8/13/2022 1:00:00 PM 0 32 0 7 0 0
8/13/2022 1:15:00 PM 0 32 0 7 0 0
8/13/2022 1:30:00 PM 0 32 0 7 0 0
8/13/2022 1:45:00 PM 0 32 0 7 0 0
8/13/2022 2:00:00 PM 0 32 0 7 0 0
8/13/2022 2:15:00 PM 0 32 0 7 0 0
8/13/2022 2:30:00 PM 0 32 0 7 0 0
8/13/2022 2:45:00 PM 0 32 0 7 0 0
8/13/2022 3:00:00 PM 0 32 0 7 0 0
8/13/2022 3:15:00 PM 0 32 0 7 0 0
8/13/2022 3:30:00 PM 0 32 0 7 0 0
8/13/2022 3:45:00 PM 0 32 0 7 0 0
8/13/2022 4:00:00 PM 0 32 0 7 0 0
8/13/2022 4:15:00 PM 0 32 0 7 0 0
8/13/2022 4:30:00 PM 0 32 0 7 0 0
8/13/2022 4:45:00 PM 0 32 0 7 0 0
8/13/2022 5:00:00 PM 0 32 0 7 0 0
8/13/2022 5:15:00 PM 0 32 0 7 0 0
8/13/2022 5:30:00 PM 0 32 0 7 0 0
8/13/2022 5:45:00 PM 0 32 0 7 0 0
8/13/2022 6:00:00 PM 0 32 0 7 0 0
8/13/2022 6:15:00 PM 0 32 0 7 0 0
8/13/2022 6:30:00 PM 0 32 0 7 0 0
8/13/2022 6:45:00 PM 0 32 0 7 0 0
8/13/2022 7:00:00 PM 0 32 0 7 0 0
8/13/2022 7:15:00 PM 0 32 0 7 0 0
8/13/2022 7:30:00 PM 0 32 0 7 0 0
8/13/2022 7:45:00 PM 0 32 0 7 0 0
8/13/2022 8:00:00 PM 0 32 0 7 0 0
8/13/2022 8:15:00 PM 0 32 0 7 0 0
8/13/2022 8:30:00 PM 0 32 0 7 0 0
8/13/2022 8:45:00 PM 0 32 0 7 0 0
8/13/2022 9:00:00 PM 0 32 0 7 0 0
8/13/2022 9:15:00 PM 0 32 0 7 0 0
8/13/2022 9:30:00 PM 0 32 0 7 0 0
8/13/2022 9:45:00 PM 0 32 0 7 0 0
8/13/2022 10:00:00 PM 0 32 0 7 0 0
8/13/2022 10:15:00 PM 0 32 0 7 0 0
8/13/2022 10:30:00 PM 0 32 0 7 0 0
8/13/2022 10:45:00 PM 0 32 0 7 0 0
8/13/2022 11:00:00 PM 0 32 0 7 0 0
8/13/2022 11:15:00 PM 0 32 0 7 0 0
8/13/2022 11:30:00 PM 0 32 0 7 0 0
8/13/2022 11:45:00 PM 0 32 0 7 0 0
8/14/2022 12:00:00 AM 0 32 0 7 0 0
8/14/2022 12:15:00 AM 0 32 0 7 0 0
8/14/2022 12:30:00 AM 0 32 0 7 0 0
8/14/2022 12:45:00 AM 0 32 0 7 0 0
8/14/2022 1:00:00 AM 0 32 0 7 0 0
8/14/2022 1:15:00 AM 0 32 0 7 0 0
8/14/2022 1:30:00 AM 0 32 0 7 0 0
8/14/2022 1:45:00 AM 0 32 0 7 0 0
8/14/2022 2:00:00 AM 0 32 0 7 0 0
8/14/2022 2:15:00 AM 0 32 0 7 0 0
8/14/2022 2:30:00 AM 0 32 0 7 0 0
8/14/2022 2:45:00 AM 0 32 0 7 0 0
8/14/2022 3:00:00 AM 0 32 0 7 0 0
8/14/2022 3:15:00 AM 0 32 0 7 0 0
8/14/2022 3:30:00 AM 0 32 0 7 0 0
8/14/2022 3:45:00 AM 0 32 0 7 0 0
8/14/2022 4:00:00 AM 0 32 0 7 0 0
8/14/2022 4:15:00 AM 0 32 0 7 0 0
8/14/2022 4:30:00 AM 0 32 0 7 0 0
8/14/2022 4:45:00 AM 0 32 0 7 0 0
8/14/2022 5:00:00 AM 0 32 0 7 0 0
8/14/2022 5:15:00 AM 0 32 0 7 0 0
8/14/2022 5:30:00 AM 0 32 0 7 0 0
8/14/2022 5:45:00 AM 0 32 0 7 0 0
8/14/2022 6:00:00 AM 0 32 0 7 0 0
8/14/2022 6:15:00 AM 0 32 0 7 0 0
8/14/2022 6:30:00 AM 0 32 0 7 0 0
8/14/2022 6:45:00 AM 0 32 0 7 0 0
8/14/2022 7:00:00 AM 0 32 0 7 0 0
8/14/2022 7:15:00 AM 0 32 0 7 0 0
8/14/2022 7:30:00 AM 0 32 0 7 0 0
8/14/2022 7:45:00 AM 0 32 0 7 0 0
8/14/2022 8:00:00 AM 0 32 0 7 0 0
8/14/2022 8:15:00 AM 0 32 0 7 0 0
8/14/2022 8:30:00 AM 0 32 0 7 0 0
8/14/2022 8:45:00 AM 0 32 0 7 0 0
8/14/2022 9:00:00 AM 0 32 0 7 0 0
8/14/2022 9:15:00 AM 0 32 0 7 0 0
8/14/2022 9:30:00 AM 0 32 0 7 0 0
8/14/2022 9:45:00 AM 0 32 0 7 0 0
8/14/2022 10:00:00 AM 0 32 0 7 0 0
8/14/2022 10:15:00 AM 0 32 0 7 0 0
8/14/2022 10:30:00 AM 0 32 0 7 0 0
8/14/2022 10:45:00 AM 0 32 0 7 0 0
8/14/2022 11:00:00 AM 0 32 0 7 0 0
8/14/2022 11:15:00 AM 0 32 0 7 0 0
8/14/2022 11:30:00 AM 0 32 0 7 0 0
8/14/2022 11:45:00 AM 0 32 0 7 0 0
8/14/2022 12:00:00 PM 0 32 0 7 0 0
8/14/2022 12:15:00 PM 0 32 0 7 0 0
8/14/2022 12:30:00 PM 0 32 0 7 0 0
8/14/2022 12:45:00 PM 0 32 0 7 0 0
8/14/2022 1:00:00 PM 0 32 0 7 0 0
8/14/2022 1:15:00 PM 0 32 0 7 0 0
8/14/2022 1:30:00 PM 0 32 0 7 0 0
8/14/2022 1:45:00 PM 0 32 0 7 0 0
8/14/2022 2:00:00 PM 0 32 0 7 0 0
8/14/2022 2:15:00 PM 0 32 0 7 0 0
8/14/2022 2:30:00 PM 0 32 0 7 0 0
8/14/2022 2:45:00 PM 0 32 0 7 0 0
8/14/2022 3:00:00 PM 0 32 0 7 0 0
8/14/2022 3:15:00 PM 0 32 0 7 0 0
8/14/2022 3:30:00 PM 0 32 0 7 0 0
8/14/2022 3:45:00 PM 0 32 0 7 0 0
8/14/2022 4:00:00 PM 0 32 0 7 0 0
8/14/2022 4:15:00 PM 0 32 0 7 0 0
8/14/2022 4:30:00 PM 0 32 0 7 0 0
8/14/2022 4:45:00 PM 0 32 0 7 0 0
8/14/2022 5:00:00 PM 0 32 0 7 0 0
8/14/2022 5:15:00 PM 0 32 0 7 0 0
8/14/2022 5:30:00 PM 0 32 0 7 0 0
8/14/2022 5:45:00 PM 0 32 0 7 0 0
8/14/2022 6:00:00 PM 0 32 0 7 0 0
8/14/2022 6:15:00 PM 0 32 0 7 0 0
8/14/2022 6:30:00 PM 0 32 0 7 0 0
8/14/2022 6:45:00 PM 0 32 0 7 0 0
8/14/2022 7:00:00 PM 0 32 0 7 0 0
8/14/2022 7:15:00 PM 0 32 0 7 0 0
8/14/2022 7:30:00 PM 0 32 0 7 0 0
8/14/2022 7:45:00 PM 0 32 0 7 0 0
8/14/2022 8:00:00 PM 0 32 0 7 0 0
8/14/2022 8:15:00 PM 0 32 0 7 0 0
8/14/2022 8:30:00 PM 0 32 0 7 0 0
8/14/2022 8:45:00 PM 0 32 0 7 0 0
8/14/2022 9:00:00 PM 0 32 0 7 0 0
8/14/2022 9:15:00 PM 0 32 0 7 0 0
8/14/2022 9:30:00 PM 0 32 0 7 0 0
8/14/2022 9:45:00 PM 0 32 0 7 0 0
8/14/2022 10:00:00 PM 0 32 0 7 0 0
8/14/2022 10:15:00 PM 0 32 0 7 0 0
8/14/2022 10:30:00 PM 0 32 0 7 0 0
8/14/2022 10:45:00 PM 0 32 0 7 0 0
8/14/2022 11:00:00 PM 0 32 0 7 0 0
8/14/2022 11:15:00 PM 0 32 0 7 0 0
8/14/2022 11:30:00 PM 0 32 0 7 0 0
8/14/2022 11:45:00 PM 0 32 0 7 0 0
8/15/2022 12:00:00 AM 0 32 0 7 0 0
8/15/2022 12:15:00 AM 0 32 0 7 0 0
8/15/2022 12:30:00 AM 0 32 0 7 0 0
8/15/2022 12:45:00 AM 0 32 0 7 0 0
8/15/2022 1:00:00 AM 0 32 0 7 0 0
8/15/2022 1:15:00 AM 0 32 0 7 0 0
8/15/2022 1:30:00 AM 0 32 0 7 0 0
8/15/2022 1:45:00 AM 0 32 0 7 0 0
8/15/2022 2:00:00 AM 0 32 0 7 0 0
8/15/2022 2:15:00 AM 0 32 0 7 0 0
8/15/2022 2:30:00 AM 0 32 0 7 0 0
8/15/2022 2:45:00 AM 0 32 0 7 0 0
8/15/2022 3:00:00 AM 0 32 0 7 0 0
8/15/2022 3:15:00 AM 0 32 0 7 0 0
8/15/2022 3:30:00 AM 0 32 0 7 0 0
8/15/2022 3:45:00 AM 0 32 0 7 0 0
8/15/2022 4:00:00 AM 0 32 0 7 0 0
8/15/2022 4:15:00 AM 0 32 0 7 0 0
8/15/2022 4:30:00 AM 0 32 0 7 0 0
8/15/2022 4:45:00 AM 0 32 0 7 0 0
8/15/2022 5:00:00 AM 0 32 0 7 0 0
8/15/2022 5:15:00 AM 0 32 0 7 0 0
8/15/2022 5:30:00 AM 0 32 0 7 0 0
8/15/2022 5:45:00 AM 0 32 0 7 0 0
8/15/2022 6:00:00 AM 0 32 0 7 0 0
8/15/2022 6:15:00 AM 0 32 0 7 0 0
8/15/2022 6:30:00 AM 0 32 0 7 0 0
8/15/2022 6:45:00 AM 0 32 0 7 0 0
8/15/2022 7:00:00 AM 0 32 0 7 0 0
8/15/2022 7:15:00 AM 0 32 0 7 0 0
8/15/2022 7:30:00 AM 0 32 0 7 0 0
8/15/2022 7:45:00 AM 0 32 0 7 0 0
8/15/2022 8:00:00 AM 0 32 0 7 0 0
8/15/2022 8:15:00 AM 0 32 0 7 0 0
8/15/2022 8:30:00 AM 0 32 0 7 0 0
8/15/2022 8:45:00 AM 0 32 0 7 0 0
8/15/2022 9:00:00 AM 0 32 0 7 0 0
8/15/2022 9:15:00 AM 0 32 0 7 0 0
8/15/2022 9:30:00 AM 0 32 0 7 0 0
8/15/2022 9:45:00 AM 0 32 0 7 0 0
8/15/2022 10:00:00 AM 0 32 0 7 0 0
8/15/2022 10:15:00 AM 0 32 0 7 0 0
8/15/2022 10:30:00 AM 0 32 0 7 0 0
8/15/2022 10:45:00 AM 0 32 0 7 0 0
8/15/2022 11:00:00 AM 0 32 0 7 0 0
8/15/2022 11:15:00 AM 0 32 0 7 0 0
8/15/2022 11:30:00 AM 0 32 0 7 0 0
8/15/2022 11:45:00 AM 0 32 0 7 0 0
8/15/2022 12:00:00 PM 0 32 0 7 0 0
8/15/2022 12:15:00 PM 0 32 0 7 0 0
8/15/2022 12:30:00 PM 0 32 0 7 0 0
8/15/2022 12:45:00 PM 0 32 0 7 0 0
8/15/2022 1:00:00 PM 0 32 0 7 0 0
8/15/2022 1:15:00 PM 0 32 0 7 0 0
8/15/2022 1:30:00 PM 0 32 0 7 0 0
8/15/2022 1:45:00 PM 0 32 0 7 0 0
8/15/2022 2:00:00 PM 0 32 0 7 0 0
8/15/2022 2:15:00 PM 0 32 0 7 0 0
8/15/2022 2:30:00 PM 0 32 0 7 0 0
8/15/2022 2:45:00 PM 0 32 0 7 0 0
8/15/2022 3:00:00 PM 0 32 0 7 0 0
8/15/2022 3:15:00 PM 0 32 0 7 0 0
8/15/2022 3:30:00 PM 0 32 0 7 0 0
8/15/2022 3:45:00 PM 0 32 0 7 0 0
8/15/2022 4:00:00 PM 0 32 0 7 0 0
8/15/2022 4:15:00 PM 0 32 0 7 0 0
8/15/2022 4:30:00 PM 0 32 0 7 0 0
8/15/2022 4:45:00 PM 0 32 0 7 0 0
8/15/2022 5:00:00 PM 0 32 0 7 0 0
8/15/2022 5:15:00 PM 0 32 0 7 0 0
8/15/2022 5:30:00 PM 0 32 0 7 0 0
8/15/2022 5:45:00 PM 0 32 0 7 0 0
8/15/2022 6:00:00 PM 0 32 0 7 0 0
8/15/2022 6:15:00 PM 0 32 0 7 0 0
8/15/2022 6:30:00 PM 0 32 0 7 0 0
8/15/2022 6:45:00 PM 0 32 0 7 0 0
8/15/2022 7:00:00 PM 0 32 0 7 0 0
8/15/2022 7:15:00 PM 0 32 0 7 0 0
8/15/2022 7:30:00 PM 0 32 0 7 0 0
8/15/2022 7:45:00 PM 0 32 0 7 0 0
8/15/2022 8:00:00 PM 0 32 0 7 0 0
8/15/2022 8:15:00 PM 0 32 0 7 0 0
8/15/2022 8:30:00 PM 0 32 0 7 0 0
8/15/2022 8:45:00 PM 0 32 0 7 0 0
8/15/2022 9:00:00 PM 0 32 0 7 0 0
8/15/2022 9:15:00 PM 0 32 0 7 0 0
8/15/2022 9:30:00 PM 0 32 0 7 0 0
8/15/2022 9:45:00 PM 0 32 0 7 0 0
8/15/2022 10:00:00 PM 0 32 0 7 0 0
8/15/2022 10:15:00 PM 0 32 0 7 0 0
8/15/2022 10:30:00 PM 0 32 0 7 0 0
8/15/2022 10:45:00 PM 0 32 0 7 0 0
8/15/2022 11:00:00 PM 0 32 0 7 0 0
8/15/2022 11:15:00 PM 0 32 0 7 0 0
8/15/2022 11:30:00 PM 0 32 0 7 0 0
8/15/2022 11:45:00 PM 0 32 0 7 0 0
8/16/2022 12:00:00 AM 0 32 0 7 0 0
8/16/2022 12:15:00 AM 0 32 0 7 0 0
8/16/2022 12:30:00 AM 0 32 0 7 0 0
8/16/2022 12:45:00 AM 0 32 0 7 0 0
8/16/2022 1:00:00 AM 0 32 0 7 0 0
8/16/2022 1:15:00 AM 0 32 0 7 0 0
8/16/2022 1:30:00 AM 0 32 0 7 0 0
8/16/2022 1:45:00 AM 0 32 0 7 0 0
8/16/2022 2:00:00 AM 0 32 0 7 0 0
8/16/2022 2:15:00 AM 0 32 0 7 0 0
8/16/2022 2:30:00 AM 0 32 0 7 0 0
8/16/2022 2:45:00 AM 0 32 0 7 0 0
8/16/2022 3:00:00 AM 0 32 0 7 0 0
8/16/2022 3:15:00 AM 0 32 0 7 0 0
8/16/2022 3:30:00 AM 0 32 0 7 0 0
8/16/2022 3:45:00 AM 0 32 0 7 0 0
8/16/2022 4:00:00 AM 0 32 0 7 0 0
8/16/2022 4:15:00 AM 0 32 0 7 0 0
8/16/2022 4:30:00 AM 0 32 0 7 0 0
8/16/2022 4:45:00 AM 0 32 0 7 0 0
8/16/2022 5:00:00 AM 0 32 0 7 0 0
8/16/2022 5:15:00 AM 0 32 0 7 0 0
8/16/2022 5:30:00 AM 0 32 0 7 0 0
8/16/2022 5:45:00 AM 0 32 0 7 0 0
8/16/2022 6:00:00 AM 0 32 0 7 0 0
8/16/2022 6:15:00 AM 0 32 0 7 0 0
8/16/2022 6:30:00 AM 0 32 0 7 0 0
8/16/2022 6:45:00 AM 0 32 0 7 0 0
8/16/2022 7:00:00 AM 0 32 0 7 0 0
8/16/2022 7:15:00 AM 0 32 0 7 0 0
8/16/2022 7:30:00 AM 0 32 0 7 0 0
8/16/2022 7:45:00 AM 0 32 0 7 0 0
8/16/2022 8:00:00 AM 0 32 0 7 0 0
8/16/2022 8:15:00 AM 0 32 0 7 0 0
8/16/2022 8:30:00 AM 0 32 0 7 0 0
8/16/2022 8:45:00 AM 0 32 0 7 0 0
8/16/2022 9:00:00 AM 0 32 0 7 0 0
8/16/2022 9:15:00 AM 0 32 0 7 0 0
8/16/2022 9:30:00 AM 0 32 0 7 0 0
8/16/2022 9:45:00 AM 0 32 0 7 0 0
8/16/2022 10:00:00 AM 0 32 0 7 0 0
8/16/2022 10:15:00 AM 0 32 0 7 0 0
8/16/2022 10:30:00 AM 0 32 0 7 0 0
8/16/2022 10:45:00 AM 0 32 0 7 0 0
8/16/2022 11:00:00 AM 0 32 0 7 0 0
8/16/2022 11:15:00 AM 0 32 0 7 0 0
8/16/2022 11:30:00 AM 0 32 0 7 0 0
8/16/2022 11:45:00 AM 0 32 0 7 0 0
8/16/2022 12:00:00 PM 0 32 0 7 0 0
8/16/2022 12:15:00 PM 0 32 0 7 0 0
8/16/2022 12:30:00 PM 0 32 0 7 0 0
8/16/2022 12:45:00 PM 0 32 0 7 0 0
8/16/2022 1:00:00 PM 0 32 0 7 0 0
8/16/2022 1:15:00 PM 0 32 0 7 0 0
8/16/2022 1:30:00 PM 0 32 0 7 0 0
8/16/2022 1:45:00 PM 0 32 0 7 0 0
8/16/2022 2:00:00 PM 0 32 0 7 0 0
8/16/2022 2:15:00 PM 0 32 0 7 0 0
8/16/2022 2:30:00 PM 0 32 0 7 0 0
8/16/2022 2:45:00 PM 0 32 0 7 0 0
8/16/2022 3:00:00 PM 0 32 0 7 0 0
8/16/2022 3:15:00 PM 0 32 0 7 0 0
8/16/2022 3:30:00 PM 0 32 0 7 0 0
8/16/2022 3:45:00 PM 0 32 0 7 0 0
8/16/2022 4:00:00 PM 0 32 0 7 0 0
8/16/2022 4:15:00 PM 0 32 0 7 0 0
8/16/2022 4:30:00 PM 0 32 0 7 0 0
8/16/2022 4:45:00 PM 0 32 0 7 0 0
8/16/2022 5:00:00 PM 0 32 0 7 0 0
8/16/2022 5:15:00 PM 0 32 0 7 0 0
8/16/2022 5:30:00 PM 0 32 0 7 0 0
8/16/2022 5:45:00 PM 0 32 0 7 0 0
8/16/2022 6:00:00 PM 0 32 0 7 0 0
8/16/2022 6:15:00 PM 0 32 0 7 0 0
8/16/2022 6:30:00 PM 0 32 0 7 0 0
8/16/2022 6:45:00 PM 0 32 0 7 0 0
8/16/2022 7:00:00 PM 0 32 0 7 0 0
8/16/2022 7:15:00 PM 0 32 0 7 0 0
8/16/2022 7:30:00 PM 0 32 0 7 0 0
8/16/2022 7:45:00 PM 0 32 0 7 0 0
8/16/2022 8:00:00 PM 0 32 0 7 0 0
8/16/2022 8:15:00 PM 0 32 0 7 0 0
8/16/2022 8:30:00 PM 0 32 0 7 0 0
8/16/2022 8:45:00 PM 0 32 0 7 0 0
8/16/2022 9:00:00 PM 0 32 0 7 0 0
8/16/2022 9:15:00 PM 0 32 0 7 0 0
8/16/2022 9:30:00 PM 0 32 0 7 0 0
8/16/2022 9:45:00 PM 0 32 0 7 0 0
8/16/2022 10:00:00 PM 0 32 0 7 0 0
8/16/2022 10:15:00 PM 0 32 0 7 0 0
8/16/2022 10:30:00 PM 0 32 0 7 0 0
8/16/2022 10:45:00 PM 0 32 0 7 0 0
8/16/2022 11:00:00 PM 0 32 0 7 0 0
8/16/2022 11:15:00 PM 0 32 0 7 0 0
8/16/2022 11:30:00 PM 0 32 0 7 0 0
8/16/2022 11:45:00 PM 0 32 0 7 0 0
8/17/2022 12:00:00 AM 0 32 0 7 0 0
8/17/2022 12:15:00 AM 0 32 0 7 0 0
8/17/2022 12:30:00 AM 0 32 0 7 0 0
8/17/2022 12:45:00 AM 0 32 0 7 0 0
8/17/2022 1:00:00 AM 0 32 0 7 0 0
8/17/2022 1:15:00 AM 0 32 0 7 0 0
8/17/2022 1:30:00 AM 0 32 0 7 0 0
8/17/2022 1:45:00 AM 0 32 0 7 0 0
8/17/2022 2:00:00 AM 0 32 0 7 0 0
8/17/2022 2:15:00 AM 0 32 0 7 0 0
8/17/2022 2:30:00 AM 0 32 0 7 0 0
8/17/2022 2:45:00 AM 0 32 0 7 0 0
8/17/2022 3:00:00 AM 0 32 0 7 0 0
8/17/2022 3:15:00 AM 0 32 0 7 0 0
8/17/2022 3:30:00 AM 0 32 0 7 0 0
8/17/2022 3:45:00 AM 0 32 0 7 0 0
8/17/2022 4:00:00 AM 0 32 0 7 0 0
8/17/2022 4:15:00 AM 0 32 0 7 0 0
8/17/2022 4:30:00 AM 0 32 0 7 0 0
8/17/2022 4:45:00 AM 0 32 0 7 0 0
8/17/2022 5:00:00 AM 0 32 0 7 0 0
8/17/2022 5:15:00 AM 0 32 0 7 0 0
8/17/2022 5:30:00 AM 0 32 0 7 0 0
8/17/2022 5:45:00 AM 0 32 0 7 0 0
8/17/2022 6:00:00 AM 0 32 0 7 0 0
8/17/2022 6:15:00 AM 0 32 0 7 0 0
8/17/2022 6:30:00 AM 0 32 0 7 0 0
8/17/2022 6:45:00 AM 0 32 0 7 0 0
8/17/2022 7:00:00 AM 0 32 0 7 0 0
8/17/2022 7:15:00 AM 0 32 0 7 0 0
8/17/2022 7:30:00 AM 0 32 0 7 0 0
8/17/2022 7:45:00 AM 0 32 0 7 0 0
8/17/2022 8:00:00 AM 0 32 0 7 0 0
8/17/2022 8:15:00 AM 0 32 0 7 0 0
8/17/2022 8:30:00 AM 0 32 0 7 0 0
8/17/2022 8:45:00 AM 0 32 0 7 0 0
8/17/2022 9:00:00 AM 0 32 0 7 0 0
8/17/2022 9:15:00 AM 0 32 0 7 0 0
8/17/2022 9:30:00 AM 0 32 0 7 0 0
8/17/2022 9:45:00 AM 0 32 0 7 0 0
8/17/2022 10:00:00 AM 0 32 0 7 0 0
8/17/2022 10:15:00 AM 0 32 0 7 0 0
8/17/2022 10:30:00 AM 0 32 0 7 0 0
8/17/2022 10:45:00 AM 0 32 0 7 0 0
8/17/2022 11:00:00 AM 0 32 0 7 0 0
8/17/2022 11:15:00 AM 0 32 0 7 0 0
8/17/2022 11:30:00 AM 0 32 0 7 0 0
8/17/2022 11:45:00 AM 0 32 0 7 0 0
8/17/2022 12:00:00 PM 0 32 0 7 0 0
8/17/2022 12:15:00 PM 0 32 0 7 0 0
8/17/2022 12:30:00 PM 0 32 0 7 0 0
8/17/2022 12:45:00 PM 0 32 0 7 0 0
8/17/2022 1:00:00 PM 0 32 0 7 0 0
8/17/2022 1:15:00 PM 0 32 0 7 0 0
8/17/2022 1:30:00 PM 0 32 0 7 0 0
8/17/2022 1:45:00 PM 0 32 0 7 0 0
8/17/2022 2:00:00 PM 0 32 0 7 0 0
8/17/2022 2:15:00 PM 0 32 0 7 0 0
8/17/2022 2:30:00 PM 0 32 0 7 0 0
8/17/2022 2:45:00 PM 0 32 0 7 0 0
8/17/2022 3:00:00 PM 0 32 0 7 0 0
8/17/2022 3:15:00 PM 0 32 0 7 0 0
8/17/2022 3:30:00 PM 0 32 0 7 0 0
8/17/2022 3:45:00 PM 0 32 0 7 0 0
8/17/2022 4:00:00 PM 0 32 0 7 0 0
8/17/2022 4:15:00 PM 0 32 0 7 0 0
8/17/2022 4:30:00 PM 0 32 0 7 0 0
8/17/2022 4:45:00 PM 0 32 0 7 0 0
8/17/2022 5:00:00 PM 0 32 0 7 0 0
8/17/2022 5:15:00 PM 0 32 0 7 0 0
8/17/2022 5:30:00 PM 0 32 0 7 0 0
8/17/2022 5:45:00 PM 0 32 0 7 0 0
8/17/2022 6:00:00 PM 0 32 0 7 0 0
8/17/2022 6:15:00 PM 0 32 0 7 0 0
8/17/2022 6:30:00 PM 0 32 0 7 0 0
8/17/2022 6:45:00 PM 0 32 0 7 0 0
8/17/2022 7:00:00 PM 0 32 0 7 0 0
8/17/2022 7:15:00 PM 0 32 0 7 0 0
8/17/2022 7:30:00 PM 0 32 0 7 0 0
8/17/2022 7:45:00 PM 0 32 0 7 0 0
8/17/2022 8:00:00 PM 0 32 0 7 0 0
8/17/2022 8:15:00 PM 0 32 0 7 0 0
8/17/2022 8:30:00 PM 0 32 0 7 0 0
8/17/2022 8:45:00 PM 0 32 0 7 0 0
8/17/2022 9:00:00 PM 0 32 0 7 0 0
8/17/2022 9:15:00 PM 0 32 0 7 0 0
8/17/2022 9:30:00 PM 0 32 0 7 0 0
8/17/2022 9:45:00 PM 0 32 0 7 0 0
8/17/2022 10:00:00 PM 0 32 0 7 0 0
8/17/2022 10:15:00 PM 0 32 0 7 0 0
8/17/2022 10:30:00 PM 0 32 0 7 0 0
8/17/2022 10:45:00 PM 0 32 0 7 0 0
8/17/2022 11:00:00 PM 0 32 0 7 0 0
8/17/2022 11:15:00 PM 0 32 0 7 0 0
8/17/2022 11:30:00 PM 0 32 0 7 0 0
8/17/2022 11:45:00 PM 0 32 0 7 0 0
8/18/2022 12:00:00 AM 0 32 0 7 0 0
8/18/2022 12:15:00 AM 0 32 0 7 0 0
8/18/2022 12:30:00 AM 0 32 0 7 0 0
8/18/2022 12:45:00 AM 0 32 0 7 0 0
8/18/2022 1:00:00 AM 0 32 0 7 0 0
8/18/2022 1:15:00 AM 0 32 0 7 0 0
8/18/2022 1:30:00 AM 0 32 0 7 0 0
8/18/2022 1:45:00 AM 0 32 0 7 0 0
8/18/2022 2:00:00 AM 0 32 0 7 0 0
8/18/2022 2:15:00 AM 0 32 0 7 0 0
8/18/2022 2:30:00 AM 0 32 0 7 0 0
8/18/2022 2:45:00 AM 0 32 0 7 0 0
8/18/2022 3:00:00 AM 0 32 0 7 0 0
8/18/2022 3:15:00 AM 0 32 0 7 0 0
8/18/2022 3:30:00 AM 0 32 0 7 0 0
8/18/2022 3:45:00 AM 0 32 0 7 0 0
8/18/2022 4:00:00 AM 0 32 0 7 0 0
8/18/2022 4:15:00 AM 0 32 0 7 0 0
8/18/2022 4:30:00 AM 0 32 0 7 0 0
8/18/2022 4:45:00 AM 0 32 0 7 0 0
8/18/2022 5:00:00 AM 0 32 0 7 0 0
8/18/2022 5:15:00 AM 0 32 0 7 0 0
8/18/2022 5:30:00 AM 0 32 0 7 0 0
8/18/2022 5:45:00 AM 0 32 0 7 0 0
8/18/2022 6:00:00 AM 0 32 0 7 0 0
8/18/2022 6:15:00 AM 0 32 0 7 0 0
8/18/2022 6:30:00 AM 0 32 0 7 0 0
8/18/2022 6:45:00 AM 0 32 0 7 0 0
8/18/2022 7:00:00 AM 0 32 0 7 0 0
8/18/2022 7:15:00 AM 0 32 0 7 0 0
8/18/2022 7:30:00 AM 0 32 0 7 0 0
8/18/2022 7:45:00 AM 0 32 0 7 0 0
8/18/2022 8:00:00 AM 0 32 0 7 0 0
8/18/2022 8:15:00 AM 0 32 0 7 0 0
8/18/2022 8:30:00 AM 0 32 0 7 0 0
8/18/2022 8:45:00 AM 0 32 0 7 0 0
8/18/2022 9:00:00 AM 0 32 0 7 0 0
8/18/2022 9:15:00 AM 0 32 0 7 0 0
8/18/2022 9:30:00 AM 0 32 0 7 0 0
8/18/2022 9:45:00 AM 0 32 0 7 0 0
8/18/2022 10:00:00 AM 0 32 0 7 0 0
8/18/2022 10:15:00 AM 0 32 0 7 0 0
8/18/2022 10:30:00 AM 0 32 0 7 0 0
8/18/2022 10:45:00 AM 0 32 0 7 0 0
8/18/2022 11:00:00 AM 0 32 0 7 0 0
8/18/2022 11:15:00 AM 0 32 0 7 0 0
8/18/2022 11:30:00 AM 0 32 0 7 0 0
8/18/2022 11:45:00 AM 0 32 0 7 0 0
8/18/2022 12:00:00 PM 0 32 0 7 0 0
8/18/2022 12:15:00 PM 0 32 0 7 0 0
8/18/2022 12:30:00 PM 0 32 0 7 0 0
8/18/2022 12:45:00 PM 0 32 0 7 0 0
8/18/2022 1:00:00 PM 0 32 0 7 0 0
8/18/2022 1:15:00 PM 0 32 0 7 0 0
8/18/2022 1:30:00 PM 0 32 0 7 0 0
8/18/2022 1:45:00 PM 0 32 0 7 0 0
8/18/2022 2:00:00 PM 0 32 0 7 0 0
8/18/2022 2:15:00 PM 0 32 0 7 0 0
8/18/2022 2:30:00 PM 0 32 0 7 0 0
8/18/2022 2:45:00 PM 0 32 0 7 0 0
8/18/2022 3:00:00 PM 0 32 0 7 0 0
8/18/2022 3:15:00 PM 0 32 0 7 0 0
8/18/2022 3:30:00 PM 0 32 0 7 0 0
8/18/2022 3:45:00 PM 0 32 0 7 0 0
8/18/2022 4:00:00 PM 0 32 0 7 0 0
8/18/2022 4:15:00 PM 0 32 0 7 0 0
8/18/2022 4:30:00 PM 0 32 0 7 0 0
8/18/2022 4:45:00 PM 0 32 0 7 0 0
8/18/2022 5:00:00 PM 0 32 0 7 0 0
8/18/2022 5:15:00 PM 0 32 0 7 0 0
8/18/2022 5:30:00 PM 0 32 0 7 0 0
8/18/2022 5:45:00 PM 0 32 0 7 0 0
8/18/2022 6:00:00 PM 0 32 0 7 0 0
8/18/2022 6:15:00 PM 0 32 0 7 0 0
8/18/2022 6:30:00 PM 0 32 0 7 0 0
8/18/2022 6:45:00 PM 0 32 0 7 0 0
8/18/2022 7:00:00 PM 0 32 0 7 0 0
8/18/2022 7:15:00 PM 0 32 0 7 0 0
8/18/2022 7:30:00 PM 0 32 0 7 0 0
8/18/2022 7:45:00 PM 0 32 0 7 0 0
8/18/2022 8:00:00 PM 0 32 0 7 0 0
8/18/2022 8:15:00 PM 0 32 0 7 0 0
8/18/2022 8:30:00 PM 0 32 0 7 0 0
8/18/2022 8:45:00 PM 0 32 0 7 0 0
8/18/2022 9:00:00 PM 0 32 0 7 0 0
8/18/2022 9:15:00 PM 0 32 0 7 0 0
8/18/2022 9:30:00 PM 0 32 0 7 0 0
8/18/2022 9:45:00 PM 0 32 0 7 0 0
8/18/2022 10:00:00 PM 0 32 0 7 0 0
8/18/2022 10:15:00 PM 0 32 0 7 0 0
8/18/2022 10:30:00 PM 0 32 0 7 0 0
8/18/2022 10:45:00 PM 0 32 0 7 0 0
8/18/2022 11:00:00 PM 0 32 0 7 0 0
8/18/2022 11:15:00 PM 0 32 0 7 0 0
8/18/2022 11:30:00 PM 0 32 0 7 0 0
8/18/2022 11:45:00 PM 0 32 0 7 0 0
8/19/2022 12:00:00 AM 0 32 0 7 0 0
8/19/2022 12:15:00 AM 0 32 0 7 0 0
8/19/2022 12:30:00 AM 0 32 0 7 0 0
8/19/2022 12:45:00 AM 0 32 0 7 0 0
8/19/2022 1:00:00 AM 0 32 0 7 0 0
8/19/2022 1:15:00 AM 0 32 0 7 0 0
8/19/2022 1:30:00 AM 0 32 0 7 0 0
8/19/2022 1:45:00 AM 0 32 0 7 0 0
8/19/2022 2:00:00 AM 0 32 0 7 0 0
8/19/2022 2:15:00 AM 0 32 0 7 0 0
8/19/2022 2:30:00 AM 0 32 0 7 0 0
8/19/2022 2:45:00 AM 0 32 0 7 0 0
8/19/2022 3:00:00 AM 0 32 0 7 0 0
8/19/2022 3:15:00 AM 0 32 0 7 0 0
8/19/2022 3:30:00 AM 0 32 0 7 0 0
8/19/2022 3:45:00 AM 0 32 0 7 0 0
8/19/2022 4:00:00 AM 0 32 0 7 0 0
8/19/2022 4:15:00 AM 0 32 0 7 0 0
8/19/2022 4:30:00 AM 0 32 0 7 0 0
8/19/2022 4:45:00 AM 0 32 0 7 0 0
8/19/2022 5:00:00 AM 0 32 0 7 0 0
8/19/2022 5:15:00 AM 0 32 0 7 0 0
8/19/2022 5:30:00 AM 0 32 0 7 0 0
8/19/2022 5:45:00 AM 0 32 0 7 0 0
8/19/2022 6:00:00 AM 0 32 0 7 0 0
8/19/2022 6:15:00 AM 0 32 0 7 0 0
8/19/2022 6:30:00 AM 0 32 0 7 0 0
8/19/2022 6:45:00 AM 0 32 0 7 0 0
8/19/2022 7:00:00 AM 0 32 0 7 0 0
8/19/2022 7:15:00 AM 0 32 0 7 0 0
8/19/2022 7:30:00 AM 0 32 0 7 0 0
8/19/2022 7:45:00 AM 0 32 0 7 0 0
8/19/2022 8:00:00 AM 0 32 0 7 0 0
8/19/2022 8:15:00 AM 0 32 0 7 0 0
8/19/2022 8:30:00 AM 0 32 0 7 0 0
8/19/2022 8:45:00 AM 0 32 0 7 0 0
8/19/2022 9:00:00 AM 0 32 0 7 0 0
8/19/2022 9:15:00 AM 0 32 0 7 0 0
8/19/2022 9:30:00 AM 0 32 0 7 0 0
8/19/2022 9:45:00 AM 0 32 0 7 0 0
8/19/2022 10:00:00 AM 0 32 0 7 0 0
8/19/2022 10:15:00 AM 0 32 0 7 0 0
8/19/2022 10:30:00 AM 0 32 0 7 0 0
8/19/2022 10:45:00 AM 0 32 0 7 0 0
8/19/2022 11:00:00 AM 0 32 0 7 0 0
8/19/2022 11:15:00 AM 0 32 0 7 0 0
8/19/2022 11:30:00 AM 0 32 0 7 0 0
8/19/2022 11:45:00 AM 0 32 0 7 0 0
8/19/2022 12:00:00 PM 0 32 0 7 0 0
8/19/2022 12:15:00 PM 0 32 0 7 0 0
8/19/2022 12:30:00 PM 0 32 0 7 0 0
8/19/2022 12:45:00 PM 0 32 0 7 0 0
8/19/2022 1:00:00 PM 0 32 0 7 0 0
8/19/2022 1:15:00 PM 0 32 0 7 0 0
8/19/2022 1:30:00 PM 0 32 0 7 0 0
8/19/2022 1:45:00 PM 0 32 0 7 0 0
8/19/2022 2:00:00 PM 0 32 0 7 0 0
8/19/2022 2:15:00 PM 0 32 0 7 0 0
8/19/2022 2:30:00 PM 0 32 0 7 0 0
8/19/2022 2:45:00 PM 0 32 0 7 0 0
8/19/2022 3:00:00 PM 0 32 0 7 0 0
8/19/2022 3:15:00 PM 0 32 0 7 0 0
8/19/2022 3:30:00 PM 0 32 0 7 0 0
8/19/2022 3:45:00 PM 0 32 0 7 0 0
8/19/2022 4:00:00 PM 0 32 0 7 0 0
8/19/2022 4:15:00 PM 0 32 0 7 0 0
8/19/2022 4:30:00 PM 0 32 0 7 0 0
8/19/2022 4:45:00 PM 0 32 0 7 0 0
8/19/2022 5:00:00 PM 0 32 0 7 0 0
8/19/2022 5:15:00 PM 0 32 0 7 0 0
8/19/2022 5:30:00 PM 0 32 0 7 0 0
8/19/2022 5:45:00 PM 0 32 0 7 0 0
8/19/2022 6:00:00 PM 0 32 0 7 0 0
8/19/2022 6:15:00 PM 0 32 0 7 0 0
8/19/2022 6:30:00 PM 0 32 0 7 0 0
8/19/2022 6:45:00 PM 0 32 0 7 0 0
8/19/2022 7:00:00 PM 0 32 0 7 0 0
8/19/2022 7:15:00 PM 0 32 0 7 0 0
8/19/2022 7:30:00 PM 0 32 0 7 0 0
8/19/2022 7:45:00 PM 0 32 0 7 0 0
8/19/2022 8:00:00 PM 0 32 0 7 0 0
8/19/2022 8:15:00 PM 0 32 0 7 0 0
8/19/2022 8:30:00 PM 0 32 0 7 0 0
8/19/2022 8:45:00 PM 0 32 0 7 0 0
8/19/2022 9:00:00 PM 0 32 0 7 0 0
8/19/2022 9:15:00 PM 0 32 0 7 0 0
8/19/2022 9:30:00 PM 0 32 0 7 0 0
8/19/2022 9:45:00 PM 0 32 0 7 0 0
8/19/2022 10:00:00 PM 0 32 0 7 0 0
8/19/2022 10:15:00 PM 0 32 0 7 0 0
8/19/2022 10:30:00 PM 0 32 0 7 0 0
8/19/2022 10:45:00 PM 0 32 0 7 0 0
8/19/2022 11:00:00 PM 0 32 0 7 0 0
8/19/2022 11:15:00 PM 0 32 0 7 0 0
8/19/2022 11:30:00 PM 0 32 0 7 0 0
8/19/2022 11:45:00 PM 0 32 0 7 0 0
8/20/2022 12:00:00 AM 0 32 0 7 0 0
8/20/2022 12:15:00 AM 0 32 0 7 0 0
8/20/2022 12:30:00 AM 0 32 0 7 0 0
8/20/2022 12:45:00 AM 0 32 0 7 0 0
8/20/2022 1:00:00 AM 0 32 0 7 0 0
8/20/2022 1:15:00 AM 0 32 0 7 0 0
8/20/2022 1:30:00 AM 0 32 0 7 0 0
8/20/2022 1:45:00 AM 0 32 0 7 0 0
8/20/2022 2:00:00 AM 0 32 0 7 0 0
8/20/2022 2:15:00 AM 0 32 0 7 0 0
8/20/2022 2:30:00 AM 0 32 0 7 0 0
8/20/2022 2:45:00 AM 0 32 0 7 0 0
8/20/2022 3:00:00 AM 0 32 0 7 0 0
8/20/2022 3:15:00 AM 0 32 0 7 0 0
8/20/2022 3:30:00 AM 0 32 0 7 0 0
8/20/2022 3:45:00 AM 0 32 0 7 0 0
8/20/2022 4:00:00 AM 0 32 0 7 0 0
8/20/2022 4:15:00 AM 0 32 0 7 0 0
8/20/2022 4:30:00 AM 0 32 0 7 0 0
8/20/2022 4:45:00 AM 0 32 0 7 0 0
8/20/2022 5:00:00 AM 0 32 0 7 0 0
8/20/2022 5:15:00 AM 0 32 0 7 0 0
8/20/2022 5:30:00 AM 0 32 0 7 0 0
8/20/2022 5:45:00 AM 0 32 0 7 0 0
8/20/2022 6:00:00 AM 0 32 0 7 0 0
8/20/2022 6:15:00 AM 0 32 0 7 0 0
8/20/2022 6:30:00 AM 0 32 0 7 0 0
8/20/2022 6:45:00 AM 0 32 0 7 0 0
8/20/2022 7:00:00 AM 0 32 0 7 0 0
8/20/2022 7:15:00 AM 0 32 0 7 0 0
8/20/2022 7:30:00 AM 0 32 0 7 0 0
8/20/2022 7:45:00 AM 0 32 0 7 0 0
8/20/2022 8:00:00 AM 0 32 0 7 0 0
8/20/2022 8:15:00 AM 0 32 0 7 0 0
8/20/2022 8:30:00 AM 0 32 0 7 0 0
8/20/2022 8:45:00 AM 0 32 0 7 0 0
8/20/2022 9:00:00 AM 0 32 0 7 0 0
8/20/2022 9:15:00 AM 0 32 0 7 0 0
8/20/2022 9:30:00 AM 0 32 0 7 0 0
8/20/2022 9:45:00 AM 0 32 0 7 0 0
8/20/2022 10:00:00 AM 0 32 0 7 0 0
8/20/2022 10:15:00 AM 0 32 0 7 0 0
8/20/2022 10:30:00 AM 0 32 0 7 0 0
8/20/2022 10:45:00 AM 0 32 0 7 0 0
8/20/2022 11:00:00 AM 0 32 0 7 0 0
8/20/2022 11:15:00 AM 0 32 0 7 0 0
8/20/2022 11:30:00 AM 0 32 0 7 0 0
8/20/2022 11:45:00 AM 0 32 0 7 0 0
8/20/2022 12:00:00 PM 0 32 0 7 0 0
8/20/2022 12:15:00 PM 0 32 0 7 0 0
8/20/2022 12:30:00 PM 0 32 0 7 0 0
8/20/2022 12:45:00 PM 0 32 0 7 0 0
8/20/2022 1:00:00 PM 0 32 0 7 0 0
8/20/2022 1:15:00 PM 0 32 0 7 0 0
8/20/2022 1:30:00 PM 0 32 0 7 0 0
8/20/2022 1:45:00 PM 0 32 0 7 0 0
8/20/2022 2:00:00 PM 0 32 0 7 0 0
8/20/2022 2:15:00 PM 0 32 0 7 0 0
8/20/2022 2:30:00 PM 0 32 0 7 0 0
8/20/2022 2:45:00 PM 0 32 0 7 0 0
8/20/2022 3:00:00 PM 0 32 0 7 0 0
8/20/2022 3:15:00 PM 0 32 0 7 0 0
8/20/2022 3:30:00 PM 0 32 0 7 0 0
8/20/2022 3:45:00 PM 0 32 0 7 0 0
8/20/2022 4:00:00 PM 0 32 0 7 0 0
8/20/2022 4:15:00 PM 0 32 0 7 0 0
8/20/2022 4:30:00 PM 0 32 0 7 0 0
8/20/2022 4:45:00 PM 0 32 0 7 0 0
8/20/2022 5:00:00 PM 0 32 0 7 0 0
8/20/2022 5:15:00 PM 0 32 0 7 0 0
8/20/2022 5:30:00 PM 0 32 0 7 0 0
8/20/2022 5:45:00 PM 0 32 0 7 0 0
8/20/2022 6:00:00 PM 0 32 0 7 0 0
8/20/2022 6:15:00 PM 0 32 0 7 0 0
8/20/2022 6:30:00 PM 0 32 0 7 0 0
8/20/2022 6:45:00 PM 0 32 0 7 0 0
8/20/2022 7:00:00 PM 0 32 0 7 0 0
8/20/2022 7:15:00 PM 0 32 0 7 0 0
8/20/2022 7:30:00 PM 0 32 0 7 0 0
8/20/2022 7:45:00 PM 0 32 0 7 0 0
8/20/2022 8:00:00 PM 0 32 0 7 0 0
8/20/2022 8:15:00 PM 0 32 0 7 0 0
8/20/2022 8:30:00 PM 0 32 0 7 0 0
8/20/2022 8:45:00 PM 0 32 0 7 0 0
8/20/2022 9:00:00 PM 0 32 0 7 0 0
8/20/2022 9:15:00 PM 0 32 0 7 0 0
8/20/2022 9:30:00 PM 0 32 0 7 0 0
8/20/2022 9:45:00 PM 0 32 0 7 0 0
8/20/2022 10:00:00 PM 0 32 0 7 0 0
8/20/2022 10:15:00 PM 0 32 0 7 0 0
8/20/2022 10:30:00 PM 0 32 0 7 0 0
8/20/2022 10:45:00 PM 0 32 0 7 0 0
8/20/2022 11:00:00 PM 0 32 0 7 0 0
8/20/2022 11:15:00 PM 0 32 0 7 0 0
8/20/2022 11:30:00 PM 0 32 0 7 0 0
8/20/2022 11:45:00 PM 0 32 0 7 0 0
8/21/2022 12:00:00 AM 0 32 0 7 0 0
8/21/2022 12:15:00 AM 0 32 0 7 0 0
8/21/2022 12:30:00 AM 0 32 0 7 0 0
8/21/2022 12:45:00 AM 0 32 0 7 0 0
8/21/2022 1:00:00 AM 0 32 0 7 0 0
8/21/2022 1:15:00 AM 0 32 0 7 0 0
8/21/2022 1:30:00 AM 0 32 0 7 0 0
8/21/2022 1:45:00 AM 0 32 0 7 0 0
8/21/2022 2:00:00 AM 0 32 0 7 0 0
8/21/2022 2:15:00 AM 0 32 0 7 0 0
8/21/2022 2:30:00 AM 0 32 0 7 0 0
8/21/2022 2:45:00 AM 0 32 0 7 0 0
8/21/2022 3:00:00 AM 0 32 0 7 0 0
8/21/2022 3:15:00 AM 0 32 0 7 0 0
8/21/2022 3:30:00 AM 0 32 0 7 0 0
8/21/2022 3:45:00 AM 0 32 0 7 0 0
8/21/2022 4:00:00 AM 0 32 0 7 0 0
8/21/2022 4:15:00 AM 0 32 0 7 0 0
8/21/2022 4:30:00 AM 0 32 0 7 0 0
8/21/2022 4:45:00 AM 0 32 0 7 0 0
8/21/2022 5:00:00 AM 0 32 0 7 0 0
8/21/2022 5:15:00 AM 0 32 0 7 0 0
8/21/2022 5:30:00 AM 0 32 0 7 0 0
8/21/2022 5:45:00 AM 0 32 0 7 0 0
8/21/2022 6:00:00 AM 0 32 0 7 0 0
8/21/2022 6:15:00 AM 0 32 0 7 0 0
8/21/2022 6:30:00 AM 0 32 0 7 0 0
8/21/2022 6:45:00 AM 0 32 0 7 0 0
8/21/2022 7:00:00 AM 0 32 0 7 0 0
8/21/2022 7:15:00 AM 0 32 0 7 0 0
8/21/2022 7:30:00 AM 0 32 0 7 0 0
8/21/2022 7:45:00 AM 0 32 0 7 0 0
8/21/2022 8:00:00 AM 0 32 0 7 0 0
8/21/2022 8:15:00 AM 0 32 0 7 0 0
8/21/2022 8:30:00 AM 0 32 0 7 0 0
8/21/2022 8:45:00 AM 0 32 0 7 0 0
8/21/2022 9:00:00 AM 0 32 0 7 0 0
8/21/2022 9:15:00 AM 0 32 0 7 0 0
8/21/2022 9:30:00 AM 0 32 0 7 0 0
8/21/2022 9:45:00 AM 0 32 0 7 0 0
8/21/2022 10:00:00 AM 0 32 0 7 0 0
8/21/2022 10:15:00 AM 0 32 0 7 0 0
8/21/2022 10:30:00 AM 0 32 0 7 0 0
8/21/2022 10:45:00 AM 0 32 0 7 0 0
8/21/2022 11:00:00 AM 0 32 0 7 0 0
8/21/2022 11:15:00 AM 0 32 0 7 0 0
8/21/2022 11:30:00 AM 0 32 0 7 0 0
8/21/2022 11:45:00 AM 0 32 0 7 0 0
8/21/2022 12:00:00 PM 0 32 0 7 0 0
8/21/2022 12:15:00 PM 0 32 0 7 0 0
8/21/2022 12:30:00 PM 0 32 0 7 0 0
8/21/2022 12:45:00 PM 0 32 0 7 0 0
8/21/2022 1:00:00 PM 0 32 0 7 0 0
8/21/2022 1:15:00 PM 0 32 0 7 0 0
8/21/2022 1:30:00 PM 0 32 0 7 0 0
8/21/2022 1:45:00 PM 0 32 0 7 0 0
8/21/2022 2:00:00 PM 0 32 0 7 0 0
8/21/2022 2:15:00 PM 0 32 0 7 0 0
8/21/2022 2:30:00 PM 0 32 0 7 0 0
8/21/2022 2:45:00 PM 0 32 0 7 0 0
8/21/2022 3:00:00 PM 0 32 0 7 0 0
8/21/2022 3:15:00 PM 0 32 0 7 0 0
8/21/2022 3:30:00 PM 0 32 0 7 0 0
8/21/2022 3:45:00 PM 0 32 0 7 0 0
8/21/2022 4:00:00 PM 0 32 0 7 0 0
8/21/2022 4:15:00 PM 0 32 0 7 0 0
8/21/2022 4:30:00 PM 0 32 0 7 0 0
8/21/2022 4:45:00 PM 0 32 0 7 0 0
8/21/2022 5:00:00 PM 0 32 0 7 0 0
8/21/2022 5:15:00 PM 0 32 0 7 0 0
8/21/2022 5:30:00 PM 0 32 0 7 0 0
8/21/2022 5:45:00 PM 0 32 0 7 0 0
8/21/2022 6:00:00 PM 0 32 0 7 0 0
8/21/2022 6:15:00 PM 0 32 0 7 0 0
8/21/2022 6:30:00 PM 0 32 0 7 0 0
8/21/2022 6:45:00 PM 0 32 0 7 0 0
8/21/2022 7:00:00 PM 0 32 0 7 0 0
8/21/2022 7:15:00 PM 0 32 0 7 0 0
8/21/2022 7:30:00 PM 0 32 0 7 0 0
8/21/2022 7:45:00 PM 0 32 0 7 0 0
8/21/2022 8:00:00 PM 0 32 0 7 0 0
8/21/2022 8:15:00 PM 0 32 0 7 0 0
8/21/2022 8:30:00 PM 0 32 0 7 0 0
8/21/2022 8:45:00 PM 0 32 0 7 0 0
8/21/2022 9:00:00 PM 0 32 0 7 0 0
8/21/2022 9:15:00 PM 0 32 0 7 0 0
8/21/2022 9:30:00 PM 0 32 0 7 0 0
8/21/2022 9:45:00 PM 0 32 0 7 0 0
8/21/2022 10:00:00 PM 0 32 0 7 0 0
8/21/2022 10:15:00 PM 0 32 0 7 0 0
8/21/2022 10:30:00 PM 0 32 0 7 0 0
8/21/2022 10:45:00 PM 0 32 0 7 0 0
8/21/2022 11:00:00 PM 0 32 0 7 0 0
8/21/2022 11:15:00 PM 0 32 0 7 0 0
8/21/2022 11:30:00 PM 0 32 0 7 0 0
8/21/2022 11:45:00 PM 0 32 0 7 0 0
8/22/2022 12:00:00 AM 0 32 0 7 0 0
8/22/2022 12:15:00 AM 0 32 0 7 0 0
8/22/2022 12:30:00 AM 0 32 0 7 0 0
8/22/2022 12:45:00 AM 0 32 0 7 0 0
8/22/2022 1:00:00 AM 0 32 0 7 0 0
8/22/2022 1:15:00 AM 0 32 0 7 0 0
8/22/2022 1:30:00 AM 0 32 0 7 0 0
8/22/2022 1:45:00 AM 0 32 0 7 0 0
8/22/2022 2:00:00 AM 0 32 0 7 0 0
8/22/2022 2:15:00 AM 0 32 0 7 0 0
8/22/2022 2:30:00 AM 0 32 0 7 0 0
8/22/2022 2:45:00 AM 0 32 0 7 0 0
8/22/2022 3:00:00 AM 0 32 0 7 0 0
8/22/2022 3:15:00 AM 0 32 0 7 0 0
8/22/2022 3:30:00 AM 0 32 0 7 0 0
8/22/2022 3:45:00 AM 0 32 0 7 0 0
8/22/2022 4:00:00 AM 0 32 0 7 0 0
8/22/2022 4:15:00 AM 0 32 0 7 0 0
8/22/2022 4:30:00 AM 0 32 0 7 0 0
8/22/2022 4:45:00 AM 0 32 0 7 0 0
8/22/2022 5:00:00 AM 0 32 0 7 0 0
8/22/2022 5:15:00 AM 0 32 0 7 0 0
8/22/2022 5:30:00 AM 0 32 0 7 0 0
8/22/2022 5:45:00 AM 0 32 0 7 0 0
8/22/2022 6:00:00 AM 0 32 0 7 0 0
8/22/2022 6:15:00 AM 0 32 0 7 0 0
8/22/2022 6:30:00 AM 0 32 0 7 0 0
8/22/2022 6:45:00 AM 0 32 0 7 0 0
8/22/2022 7:00:00 AM 0 32 0 7 0 0
8/22/2022 7:15:00 AM 0 32 0 7 0 0
8/22/2022 7:30:00 AM 0 32 0 7 0 0
8/22/2022 7:45:00 AM 0 32 0 7 0 0
8/22/2022 8:00:00 AM 0 32 0 7 0 0
8/22/2022 8:15:00 AM 0 32 0 7 0 0
8/22/2022 8:30:00 AM 0 32 0 7 0 0
8/22/2022 8:45:00 AM 0 32 0 7 0 0
8/22/2022 9:00:00 AM 0 32 0 7 0 0
8/22/2022 9:15:00 AM 0 32 0 7 0 0
8/22/2022 9:30:00 AM 0 32 0 7 0 0
8/22/2022 9:45:00 AM 0 32 0 7 0 0
8/22/2022 10:00:00 AM 0 32 0 7 0 0
8/22/2022 10:15:00 AM 0 32 0 7 0 0
8/22/2022 10:30:00 AM 0 32 0 7 0 0
8/22/2022 10:45:00 AM 0 32 0 7 0 0
8/22/2022 11:00:00 AM 0 32 0 7 0 0
8/22/2022 11:15:00 AM 0 32 0 7 0 0
8/22/2022 11:30:00 AM 0 32 0 7 0 0
8/22/2022 11:45:00 AM 0 32 0 7 0 0
8/22/2022 12:00:00 PM 0 32 0 7 0 0
8/22/2022 12:15:00 PM 0 32 0 7 0 0
8/22/2022 12:30:00 PM 0 32 0 7 0 0
8/22/2022 12:45:00 PM 0 32 0 7 0 0
8/22/2022 1:00:00 PM 0 32 0 7 0 0
8/22/2022 1:15:00 PM 0 32 0 7 0 0
8/22/2022 1:30:00 PM 0 32 0 7 0 0
8/22/2022 1:45:00 PM 0 32 0 7 0 0
8/22/2022 2:00:00 PM 0 32 0 7 0 0
8/22/2022 2:15:00 PM 0 32 0 7 0 0
8/22/2022 2:30:00 PM 0 32 0 7 0 0
8/22/2022 2:45:00 PM 0 32 0 7 0 0
8/22/2022 3:00:00 PM 0 32 0 7 0 0
8/22/2022 3:15:00 PM 0 32 0 7 0 0
8/22/2022 3:30:00 PM 0 32 0 7 0 0
8/22/2022 3:45:00 PM 0 32 0 7 0 0
8/22/2022 4:00:00 PM 0 32 0 7 0 0
8/22/2022 4:15:00 PM 0 32 0 7 0 0
8/22/2022 4:30:00 PM 0 32 0 7 0 0
8/22/2022 4:45:00 PM 0 32 0 7 0 0
8/22/2022 5:00:00 PM 0 32 0 7 0 0
8/22/2022 5:15:00 PM 0 32 0 7 0 0
8/22/2022 5:30:00 PM 0 32 0 7 0 0
8/22/2022 5:45:00 PM 0 32 0 7 0 0
8/22/2022 6:00:00 PM 0 32 0 7 0 0
8/22/2022 6:15:00 PM 0 32 0 7 0 0
8/22/2022 6:30:00 PM 0 32 0 7 0 0
8/22/2022 6:45:00 PM 0 32 0 7 0 0
8/22/2022 7:00:00 PM 0 32 0 7 0 0
8/22/2022 7:15:00 PM 0 32 0 7 0 0
8/22/2022 7:30:00 PM 0 32 0 7 0 0
8/22/2022 7:45:00 PM 0 32 0 7 0 0
8/22/2022 8:00:00 PM 0 32 0 7 0 0
8/22/2022 8:15:00 PM 0 32 0 7 0 0
8/22/2022 8:30:00 PM 0 32 0 7 0 0
8/22/2022 8:45:00 PM 0 32 0 7 0 0
8/22/2022 9:00:00 PM 0 32 0 7 0 0
8/22/2022 9:15:00 PM 0 32 0 7 0 0
8/22/2022 9:30:00 PM 0 32 0 7 0 0
8/22/2022 9:45:00 PM 0 32 0 7 0 0
8/22/2022 10:00:00 PM 0 32 0 7 0 0
8/22/2022 10:15:00 PM 0 32 0 7 0 0
8/22/2022 10:30:00 PM 0 32 0 7 0 0
8/22/2022 10:45:00 PM 0 32 0 7 0 0
8/22/2022 11:00:00 PM 0 32 0 7 0 0
8/22/2022 11:15:00 PM 0 32 0 7 0 0
8/22/2022 11:30:00 PM 0 32 0 7 0 0
8/22/2022 11:45:00 PM 0 32 0 7 0 0
8/23/2022 12:00:00 AM 0 32 0 7 0 0
8/23/2022 12:15:00 AM 0 32 0 7 0 0
8/23/2022 12:30:00 AM 0 32 0 7 0 0
8/23/2022 12:45:00 AM 0 32 0 7 0 0
8/23/2022 1:00:00 AM 0 32 0 7 0 0
8/23/2022 1:15:00 AM 0 32 0 7 0 0
8/23/2022 1:30:00 AM 0 32 0 7 0 0
8/23/2022 1:45:00 AM 0 32 0 7 0 0
8/23/2022 2:00:00 AM 0 32 0 7 0 0
8/23/2022 2:15:00 AM 0 32 0 7 0 0
8/23/2022 2:30:00 AM 0 32 0 7 0 0
8/23/2022 2:45:00 AM 0 32 0 7 0 0
8/23/2022 3:00:00 AM 0 32 0 7 0 0
8/23/2022 3:15:00 AM 0 32 0 7 0 0
8/23/2022 3:30:00 AM 0 32 0 7 0 0
8/23/2022 3:45:00 AM 0 32 0 7 0 0
8/23/2022 4:00:00 AM 0 32 0 7 0 0
8/23/2022 4:15:00 AM 0 32 0 7 0 0
8/23/2022 4:30:00 AM 0 32 0 7 0 0
8/23/2022 4:45:00 AM 0 32 0 7 0 0
8/23/2022 5:00:00 AM 0 32 0 7 0 0
8/23/2022 5:15:00 AM 0 32 0 7 0 0
8/23/2022 5:30:00 AM 0 32 0 7 0 0
8/23/2022 5:45:00 AM 0 32 0 7 0 0
8/23/2022 6:00:00 AM 0 32 0 7 0 0
8/23/2022 6:15:00 AM 0 32 0 7 0 0
8/23/2022 6:30:00 AM 0 32 0 7 0 0
8/23/2022 6:45:00 AM 0 32 0 7 0 0
8/23/2022 7:00:00 AM 0 32 0 7 0 0
8/23/2022 7:15:00 AM 0 32 0 7 0 0
8/23/2022 7:30:00 AM 0 32 0 7 0 0
8/23/2022 7:45:00 AM 0 32 0 7 0 0
8/23/2022 8:00:00 AM 0 32 0 7 0 0
8/23/2022 8:15:00 AM 0 32 0 7 0 0
8/23/2022 8:30:00 AM 0 32 0 7 0 0
8/23/2022 8:45:00 AM 0 32 0 7 0 0
8/23/2022 9:00:00 AM 0 32 0 7 0 0
8/23/2022 9:15:00 AM 0 32 0 7 0 0
8/23/2022 9:30:00 AM 0 32 0 7 0 0
8/23/2022 9:45:00 AM 0 32 0 7 0 0
8/23/2022 10:00:00 AM 0 32 0 7 0 0
8/23/2022 10:15:00 AM 0 32 0 7 0 0
8/23/2022 10:30:00 AM 0 32 0 7 0 0
8/23/2022 10:45:00 AM 0 32 0 7 0 0
8/23/2022 11:00:00 AM 0 32 0 7 0 0
8/23/2022 11:15:00 AM 0 32 0 7 0 0
8/23/2022 11:30:00 AM 0 32 0 7 0 0
8/23/2022 11:45:00 AM 0 32 0 7 0 0
8/23/2022 12:00:00 PM 0 32 0 7 0 0
8/23/2022 12:15:00 PM 0 32 0 7 0 0
8/23/2022 12:30:00 PM 0 32 0 7 0 0
8/23/2022 12:45:00 PM 0 32 0 7 0 0
8/23/2022 1:00:00 PM 0 32 0 7 0 0
8/23/2022 1:15:00 PM 0 32 0 7 0 0
8/23/2022 1:30:00 PM 0 32 0 7 0 0
8/23/2022 1:45:00 PM 0 32 0 7 0 0
8/23/2022 2:00:00 PM 0 32 0 7 0 0
8/23/2022 2:15:00 PM 0 32 0 7 0 0
8/23/2022 2:30:00 PM 0 32 0 7 0 0
8/23/2022 2:45:00 PM 0 32 0 7 0 0
8/23/2022 3:00:00 PM 0 32 0 7 0 0
8/23/2022 3:15:00 PM 0 32 0 7 0 0
8/23/2022 3:30:00 PM 0 32 0 7 0 0
8/23/2022 3:45:00 PM 0 32 0 7 0 0
8/23/2022 4:00:00 PM 0 32 0 7 0 0
8/23/2022 4:15:00 PM 0 32 0 7 0 0
8/23/2022 4:30:00 PM 0 32 0 7 0 0
8/23/2022 4:45:00 PM 0 32 0 7 0 0
8/23/2022 5:00:00 PM 0 32 0 7 0 0
8/23/2022 5:15:00 PM 0 32 0 7 0 0
8/23/2022 5:30:00 PM 0 32 0 7 0 0
8/23/2022 5:45:00 PM 0 32 0 7 0 0
8/23/2022 6:00:00 PM 0 32 0 7 0 0
8/23/2022 6:15:00 PM 0 32 0 7 0 0
8/23/2022 6:30:00 PM 0 32 0 7 0 0
8/23/2022 6:45:00 PM 0 32 0 7 0 0
8/23/2022 7:00:00 PM 0 32 0 7 0 0
8/23/2022 7:15:00 PM 0 32 0 7 0 0
8/23/2022 7:30:00 PM 0 32 0 7 0 0
8/23/2022 7:45:00 PM 0 32 0 7 0 0
8/23/2022 8:00:00 PM 0 32 0 7 0 0
8/23/2022 8:15:00 PM 0 32 0 7 0 0
8/23/2022 8:30:00 PM 0 32 0 7 0 0
8/23/2022 8:45:00 PM 0 32 0 7 0 0
8/23/2022 9:00:00 PM 0 32 0 7 0 0
8/23/2022 9:15:00 PM 0 32 0 7 0 0
8/23/2022 9:30:00 PM 0 32 0 7 0 0
8/23/2022 9:45:00 PM 0 32 0 7 0 0
8/23/2022 10:00:00 PM 0 32 0 7 0 0
8/23/2022 10:15:00 PM 0 32 0 7 0 0
8/23/2022 10:30:00 PM 0 32 0 7 0 0
8/23/2022 10:45:00 PM 0 32 0 7 0 0
8/23/2022 11:00:00 PM 0 32 0 7 0 0
8/23/2022 11:15:00 PM 0 32 0 7 0 0
8/23/2022 11:30:00 PM 0 32 0 7 0 0
8/23/2022 11:45:00 PM 0 32 0 7 0 0
8/24/2022 12:00:00 AM 0 32 0 7 0 0
8/24/2022 12:15:00 AM 0 32 0 7 0 0
8/24/2022 12:30:00 AM 0 32 0 7 0 0
8/24/2022 12:45:00 AM 0 32 0 7 0 0
8/24/2022 1:00:00 AM 0 32 0 7 0 0
8/24/2022 1:15:00 AM 0 32 0 7 0 0
8/24/2022 1:30:00 AM 0 32 0 7 0 0
8/24/2022 1:45:00 AM 0 32 0 7 0 0
8/24/2022 2:00:00 AM 0 32 0 7 0 0
8/24/2022 2:15:00 AM 0 32 0 7 0 0
8/24/2022 2:30:00 AM 0 32 0 7 0 0
8/24/2022 2:45:00 AM 0 32 0 7 0 0
8/24/2022 3:00:00 AM 0 32 0 7 0 0
8/24/2022 3:15:00 AM 0 32 0 7 0 0
8/24/2022 3:30:00 AM 0 32 0 7 0 0
8/24/2022 3:45:00 AM 0 32 0 7 0 0
8/24/2022 4:00:00 AM 0 32 0 7 0 0
8/24/2022 4:15:00 AM 0 32 0 7 0 0
8/24/2022 4:30:00 AM 0 32 0 7 0 0
8/24/2022 4:45:00 AM 0 32 0 7 0 0
8/24/2022 5:00:00 AM 0 32 0 7 0 0
8/24/2022 5:15:00 AM 0 32 0 7 0 0
8/24/2022 5:30:00 AM 0 32 0 7 0 0
8/24/2022 5:45:00 AM 0 32 0 7 0 0
8/24/2022 6:00:00 AM 0 32 0 7 0 0
8/24/2022 6:15:00 AM 0 32 0 7 0 0
8/24/2022 6:30:00 AM 0 32 0 7 0 0
8/24/2022 6:45:00 AM 0 32 0 7 0 0
8/24/2022 7:00:00 AM 0 32 0 7 0 0
8/24/2022 7:15:00 AM 0 32 0 7 0 0
8/24/2022 7:30:00 AM 0 32 0 7 0 0
8/24/2022 7:45:00 AM 0 32 0 7 0 0
8/24/2022 8:00:00 AM 0 32 0 7 0 0
8/24/2022 8:15:00 AM 0 32 0 7 0 0
8/24/2022 8:30:00 AM 0 32 0 7 0 0
8/24/2022 8:45:00 AM 0 32 0 7 0 0
8/24/2022 9:00:00 AM 0 32 0 7 0 0
8/24/2022 9:15:00 AM 0 32 0 7 0 0
8/24/2022 9:30:00 AM 0 32 0 7 0 0
8/24/2022 9:45:00 AM 0 32 0 7 0 0
8/24/2022 10:00:00 AM 0 32 0 7 0 0
8/24/2022 10:15:00 AM 0 32 0 7 0 0
8/24/2022 10:30:00 AM 0 32 0 7 0 0
8/24/2022 10:45:00 AM 0 32 0 7 0 0
8/24/2022 11:00:00 AM 0 32 0 7 0 0
8/24/2022 11:15:00 AM 0 32 0 7 0 0
8/24/2022 11:30:00 AM 0 32 0 7 0 0
8/24/2022 11:45:00 AM 0 32 0 7 0 0
8/24/2022 12:00:00 PM 0 32 0 7 0 0
8/24/2022 12:15:00 PM 0 32 0 7 0 0
8/24/2022 12:30:00 PM 0 32 0 7 0 0
8/24/2022 12:45:00 PM 0 32 0 7 0 0
8/24/2022 1:00:00 PM 0 32 0 7 0 0
8/24/2022 1:15:00 PM 0 32 0 7 0 0
8/24/2022 1:30:00 PM 0 32 0 7 0 0
8/24/2022 1:45:00 PM 0 32 0 7 0 0
8/24/2022 2:00:00 PM 0 32 0 7 0 0
8/24/2022 2:15:00 PM 0 32 0 7 0 0
8/24/2022 2:30:00 PM 0 32 0 7 0 0
8/24/2022 2:45:00 PM 0 32 0 7 0 0
8/24/2022 3:00:00 PM 0 32 0 7 0 0
8/24/2022 3:15:00 PM 0 32 0 7 0 0
8/24/2022 3:30:00 PM 0 32 0 7 0 0
8/24/2022 3:45:00 PM 0 32 0 7 0 0
8/24/2022 4:00:00 PM 0 32 0 7 0 0
8/24/2022 4:15:00 PM 0 32 0 7 0 0
8/24/2022 4:30:00 PM 0 32 0 7 0 0
8/24/2022 4:45:00 PM 0 32 0 7 0 0
8/24/2022 5:00:00 PM 0 32 0 7 0 0
8/24/2022 5:15:00 PM 0 32 0 7 0 0
8/24/2022 5:30:00 PM 0 32 0 7 0 0
8/24/2022 5:45:00 PM 0 32 0 7 0 0
8/24/2022 6:00:00 PM 0 32 0 7 0 0
8/24/2022 6:15:00 PM 0 32 0 7 0 0
8/24/2022 6:30:00 PM 0 32 0 7 0 0
8/24/2022 6:45:00 PM 0 32 0 7 0 0
8/24/2022 7:00:00 PM 0 32 0 7 0 0
8/24/2022 7:15:00 PM 0 32 0 7 0 0
8/24/2022 7:30:00 PM 0 32 0 7 0 0
8/24/2022 7:45:00 PM 0 32 0 7 0 0
8/24/2022 8:00:00 PM 0 32 0 7 0 0
8/24/2022 8:15:00 PM 0 32 0 7 0 0
8/24/2022 8:30:00 PM 0 32 0 7 0 0
8/24/2022 8:45:00 PM 0 32 0 7 0 0
8/24/2022 9:00:00 PM 0 32 0 7 0 0
8/24/2022 9:15:00 PM 0 32 0 7 0 0
8/24/2022 9:30:00 PM 0 32 0 7 0 0
8/24/2022 9:45:00 PM 0 32 0 7 0 0
8/24/2022 10:00:00 PM 0 32 0 7 0 0
8/24/2022 10:15:00 PM 0 32 0 7 0 0
8/24/2022 10:30:00 PM 0 32 0 7 0 0
8/24/2022 10:45:00 PM 0 32 0 7 0 0
8/24/2022 11:00:00 PM 0 32 0 7 0 0
8/24/2022 11:15:00 PM 0 32 0 7 0 0
8/24/2022 11:30:00 PM 0 32 0 7 0 0
8/24/2022 11:45:00 PM 0 32 0 7 0 0
8/25/2022 12:00:00 AM 0 32 0 7 0 0
8/25/2022 12:15:00 AM 0 32 0 7 0 0
8/25/2022 12:30:00 AM 0 32 0 7 0 0
8/25/2022 12:45:00 AM 0 32 0 7 0 0
8/25/2022 1:00:00 AM 0 32 0 7 0 0
8/25/2022 1:15:00 AM 0 32 0 7 0 0
8/25/2022 1:30:00 AM 0 32 0 7 0 0
8/25/2022 1:45:00 AM 0 32 0 7 0 0
8/25/2022 2:00:00 AM 0 32 0 7 0 0
8/25/2022 2:15:00 AM 0 32 0 7 0 0
8/25/2022 2:30:00 AM 0 32 0 7 0 0
8/25/2022 2:45:00 AM 0 32 0 7 0 0
8/25/2022 3:00:00 AM 0 32 0 7 0 0
8/25/2022 3:15:00 AM 0 32 0 7 0 0
8/25/2022 3:30:00 AM 0 32 0 7 0 0
8/25/2022 3:45:00 AM 0 32 0 7 0 0
8/25/2022 4:00:00 AM 0 32 0 7 0 0
8/25/2022 4:15:00 AM 0 32 0 7 0 0
8/25/2022 4:30:00 AM 0 32 0 7 0 0
8/25/2022 4:45:00 AM 0 32 0 7 0 0
8/25/2022 5:00:00 AM 0 32 0 7 0 0
8/25/2022 5:15:00 AM 0 32 0 7 0 0
8/25/2022 5:30:00 AM 0 32 0 7 0 0
8/25/2022 5:45:00 AM 0 32 0 7 0 0
8/25/2022 6:00:00 AM 0 32 0 7 0 0
8/25/2022 6:15:00 AM 0 32 0 7 0 0
8/25/2022 6:30:00 AM 0 32 0 7 0 0
8/25/2022 6:45:00 AM 0 32 0 7 0 0
8/25/2022 7:00:00 AM 0 32 0 7 0 0
8/25/2022 7:15:00 AM 0 32 0 7 0 0
8/25/2022 7:30:00 AM 0 32 0 7 0 0
8/25/2022 7:45:00 AM 0 32 0 7 0 0
8/25/2022 8:00:00 AM 0 32 0 7 0 0
8/25/2022 8:15:00 AM 0 32 0 7 0 0
8/25/2022 8:30:00 AM 0 32 0 7 0 0
8/25/2022 8:45:00 AM 0 32 0 7 0 0
8/25/2022 9:00:00 AM 0 32 0 7 0 0
8/25/2022 9:15:00 AM 0 32 0 7 0 0
8/25/2022 9:30:00 AM 0 32 0 7 0 0
8/25/2022 9:45:00 AM 0 32 0 7 0 0
8/25/2022 10:00:00 AM 0 32 0 7 0 0
8/25/2022 10:15:00 AM 0 32 0 7 0 0
8/25/2022 10:30:00 AM 0 32 0 7 0 0
8/25/2022 10:45:00 AM 0 32 0 7 0 0
8/25/2022 11:00:00 AM 0 32 0 7 0 0
8/25/2022 11:15:00 AM 0 32 0 7 0 0
8/25/2022 11:30:00 AM 0 32 0 7 0 0
8/25/2022 11:45:00 AM 0 32 0 7 0 0
8/25/2022 12:00:00 PM 0 32 0 7 0 0
8/25/2022 12:15:00 PM 0 32 0 7 0 0
8/25/2022 12:30:00 PM 0 32 0 7 0 0
8/25/2022 12:45:00 PM 0 32 0 7 0 0
8/25/2022 1:00:00 PM 0 32 0 7 0 0
8/25/2022 1:15:00 PM 0 32 0 7 0 0
8/25/2022 1:30:00 PM 0 32 0 7 0 0
8/25/2022 1:45:00 PM 0 32 0 7 0 0
8/25/2022 2:00:00 PM 0 32 0 7 0 0
8/25/2022 2:15:00 PM 0 32 0 7 0 0
8/25/2022 2:30:00 PM 0 32 0 7 0 0
8/25/2022 2:45:00 PM 0 32 0 7 0 0
8/25/2022 3:00:00 PM 0 32 0 7 0 0
8/25/2022 3:15:00 PM 0 32 0 7 0 0
8/25/2022 3:30:00 PM 0 32 0 7 0 0
8/25/2022 3:45:00 PM 0 32 0 7 0 0
8/25/2022 4:00:00 PM 0 32 0 7 0 0
8/25/2022 4:15:00 PM 0 32 0 7 0 0
8/25/2022 4:30:00 PM 0 32 0 7 0 0
8/25/2022 4:45:00 PM 0 32 0 7 0 0
8/25/2022 5:00:00 PM 0 32 0 7 0 0
8/25/2022 5:15:00 PM 0 32 0 7 0 0
8/25/2022 5:30:00 PM 0 32 0 7 0 0
8/25/2022 5:45:00 PM 0 32 0 7 0 0
8/25/2022 6:00:00 PM 0 32 0 7 0 0
8/25/2022 6:15:00 PM 0 32 0 7 0 0
8/25/2022 6:30:00 PM 0 32 0 7 0 0
8/25/2022 6:45:00 PM 0 32 0 7 0 0
8/25/2022 7:00:00 PM 0 32 0 7 0 0
8/25/2022 7:15:00 PM 0 32 0 7 0 0
8/25/2022 7:30:00 PM 0 32 0 7 0 0
8/25/2022 7:45:00 PM 0 32 0 7 0 0
8/25/2022 8:00:00 PM 0 32 0 7 0 0
8/25/2022 8:15:00 PM 0 32 0 7 0 0
8/25/2022 8:30:00 PM 0 32 0 7 0 0
8/25/2022 8:45:00 PM 0 32 0 7 0 0
8/25/2022 9:00:00 PM 0 32 0 7 0 0
8/25/2022 9:15:00 PM 0 32 0 7 0 0
8/25/2022 9:30:00 PM 0 32 0 7 0 0
8/25/2022 9:45:00 PM 0 32 0 7 0 0
8/25/2022 10:00:00 PM 0 32 0 7 0 0
8/25/2022 10:15:00 PM 0 32 0 7 0 0
8/25/2022 10:30:00 PM 0 32 0 7 0 0
8/25/2022 10:45:00 PM 0 32 0 7 0 0
8/25/2022 11:00:00 PM 0 32 0 7 0 0
8/25/2022 11:15:00 PM 0 32 0 7 0 0
8/25/2022 11:30:00 PM 0 32 0 7 0 0
8/25/2022 11:45:00 PM 0 32 0 7 0 0
8/26/2022 12:00:00 AM 0 32 0 7 0 0
8/26/2022 12:15:00 AM 0 32 0 7 0 0
8/26/2022 12:30:00 AM 0 32 0 7 0 0
8/26/2022 12:45:00 AM 0 32 0 7 0 0
8/26/2022 1:00:00 AM 0 32 0 7 0 0
8/26/2022 1:15:00 AM 0 32 0 7 0 0
8/26/2022 1:30:00 AM 0 32 0 7 0 0
8/26/2022 1:45:00 AM 0 32 0 7 0 0
8/26/2022 2:00:00 AM 0 32 0 7 0 0
8/26/2022 2:15:00 AM 0 32 0 7 0 0
8/26/2022 2:30:00 AM 0 32 0 7 0 0
8/26/2022 2:45:00 AM 0 32 0 7 0 0
8/26/2022 3:00:00 AM 0 32 0 7 0 0
8/26/2022 3:15:00 AM 0 32 0 7 0 0
8/26/2022 3:30:00 AM 0 32 0 7 0 0
8/26/2022 3:45:00 AM 0 32 0 7 0 0
8/26/2022 4:00:00 AM 0 32 0 7 0 0
8/26/2022 4:15:00 AM 0 32 0 7 0 0
8/26/2022 4:30:00 AM 0 32 0 7 0 0
8/26/2022 4:45:00 AM 0 32 0 7 0 0
8/26/2022 5:00:00 AM 0 32 0 7 0 0
8/26/2022 5:15:00 AM 0 32